<?xml version="1.0" encoding="UTF-8" standalone="no" ?>
<gpx xmlns="http://www.topografix.com/GPX/1/1" xmlns:xsi="http://www.w3.org/2001/XMLSchema-instance" xsi:schemaLocation="http://www.topografix.com/GPX/1/1 http://www.topografix.com/GPX/1/1/gpx.xsd" version="1.1" creator="VisuGPX - https://www.visugpx.com">
  <metadata>
    <name>Le Casque du Lhéris</name>
    <desc><![CDATA[Départ au dessus du petite village de Banios, en bout de piste (912m). Montée à travers les bois jusqu'au pied de la Montagne de Billexe, puis jusqu'à un petit col sans nom. Passage par la Cabane de Cot dessus et montée directe vers le sommet. Descente par le même itinéraire.]]></desc>
  </metadata>
  <trk>
    <name><![CDATA[
			2018-05-23 Casque du Lhéris
		]]></name>
    <trkseg>
      <trkpt lat="43.02449" lon="0.24516">
        <ele>912</ele>
        <time>2018-05-23T07:01:33Z</time>
      </trkpt>
      <trkpt lat="43.02448" lon="0.24512">
        <ele>915.86</ele>
        <time>2018-05-23T07:01:40Z</time>
      </trkpt>
      <trkpt lat="43.02442" lon="0.24507">
        <ele>916.4</ele>
        <time>2018-05-23T07:01:51Z</time>
      </trkpt>
      <trkpt lat="43.02433" lon="0.24504">
        <ele>917.74</ele>
        <time>2018-05-23T07:01:58Z</time>
      </trkpt>
      <trkpt lat="43.02422" lon="0.24491">
        <ele>918.7</ele>
        <time>2018-05-23T07:02:10Z</time>
      </trkpt>
      <trkpt lat="43.02417" lon="0.24475">
        <ele>919.49</ele>
        <time>2018-05-23T07:02:23Z</time>
      </trkpt>
      <trkpt lat="43.02403" lon="0.2445">
        <ele>921.02</ele>
        <time>2018-05-23T07:02:44Z</time>
      </trkpt>
      <trkpt lat="43.02394" lon="0.24435">
        <ele>922.88</ele>
        <time>2018-05-23T07:02:57Z</time>
      </trkpt>
      <trkpt lat="43.02379" lon="0.24412">
        <ele>925.04</ele>
        <time>2018-05-23T07:03:24Z</time>
      </trkpt>
      <trkpt lat="43.02367" lon="0.24404">
        <ele>926.85</ele>
        <time>2018-05-23T07:03:37Z</time>
      </trkpt>
      <trkpt lat="43.02361" lon="0.24396">
        <ele>928.51</ele>
        <time>2018-05-23T07:03:49Z</time>
      </trkpt>
      <trkpt lat="43.02356" lon="0.24392">
        <ele>929.63</ele>
        <time>2018-05-23T07:03:55Z</time>
      </trkpt>
      <trkpt lat="43.02347" lon="0.24383">
        <ele>930.89</ele>
        <time>2018-05-23T07:04:07Z</time>
      </trkpt>
      <trkpt lat="43.02347" lon="0.24377">
        <ele>932.16</ele>
        <time>2018-05-23T07:04:14Z</time>
      </trkpt>
      <trkpt lat="43.02332" lon="0.24365">
        <ele>933.76</ele>
        <time>2018-05-23T07:04:36Z</time>
      </trkpt>
      <trkpt lat="43.02329" lon="0.24357">
        <ele>935.34</ele>
        <time>2018-05-23T07:04:49Z</time>
      </trkpt>
      <trkpt lat="43.02327" lon="0.24353">
        <ele>936.84</ele>
        <time>2018-05-23T07:04:58Z</time>
      </trkpt>
      <trkpt lat="43.02307" lon="0.24344">
        <ele>938.5</ele>
        <time>2018-05-23T07:05:15Z</time>
      </trkpt>
      <trkpt lat="43.0229" lon="0.24338">
        <ele>940.21</ele>
        <time>2018-05-23T07:05:21Z</time>
      </trkpt>
      <trkpt lat="43.0228" lon="0.24352">
        <ele>941.97</ele>
        <time>2018-05-23T07:05:42Z</time>
      </trkpt>
      <trkpt lat="43.02295" lon="0.24387">
        <ele>943.84</ele>
        <time>2018-05-23T07:06:06Z</time>
      </trkpt>
      <trkpt lat="43.02311" lon="0.24419">
        <ele>946.03</ele>
        <time>2018-05-23T07:06:31Z</time>
      </trkpt>
      <trkpt lat="43.02311" lon="0.24429">
        <ele>947.97</ele>
        <time>2018-05-23T07:06:42Z</time>
      </trkpt>
      <trkpt lat="43.02306" lon="0.24443">
        <ele>950.32</ele>
        <time>2018-05-23T07:06:58Z</time>
      </trkpt>
      <trkpt lat="43.02293" lon="0.24439">
        <ele>952.67</ele>
        <time>2018-05-23T07:07:25Z</time>
      </trkpt>
      <trkpt lat="43.02287" lon="0.24435">
        <ele>954.93</ele>
        <time>2018-05-23T07:08:04Z</time>
      </trkpt>
      <trkpt lat="43.02274" lon="0.24419">
        <ele>957.22</ele>
        <time>2018-05-23T07:08:20Z</time>
      </trkpt>
      <trkpt lat="43.0224" lon="0.24388">
        <ele>959.67</ele>
        <time>2018-05-23T07:08:33Z</time>
      </trkpt>
      <trkpt lat="43.02237" lon="0.24364">
        <ele>961.6</ele>
        <time>2018-05-23T07:08:51Z</time>
      </trkpt>
      <trkpt lat="43.02229" lon="0.24331">
        <ele>963.74</ele>
        <time>2018-05-23T07:09:16Z</time>
      </trkpt>
      <trkpt lat="43.02229" lon="0.2431">
        <ele>965.74</ele>
        <time>2018-05-23T07:09:38Z</time>
      </trkpt>
      <trkpt lat="43.02229" lon="0.2429">
        <ele>967.64</ele>
        <time>2018-05-23T07:10:00Z</time>
      </trkpt>
      <trkpt lat="43.02227" lon="0.24283">
        <ele>969.11</ele>
        <time>2018-05-23T07:10:10Z</time>
      </trkpt>
      <trkpt lat="43.02211" lon="0.24271">
        <ele>970.39</ele>
        <time>2018-05-23T07:10:26Z</time>
      </trkpt>
      <trkpt lat="43.02208" lon="0.24262">
        <ele>971.49</ele>
        <time>2018-05-23T07:10:46Z</time>
      </trkpt>
      <trkpt lat="43.02209" lon="0.24258">
        <ele>972.8</ele>
        <time>2018-05-23T07:10:55Z</time>
      </trkpt>
      <trkpt lat="43.02215" lon="0.24242">
        <ele>974.34</ele>
        <time>2018-05-23T07:11:17Z</time>
      </trkpt>
      <trkpt lat="43.02209" lon="0.24223">
        <ele>976.01</ele>
        <time>2018-05-23T07:11:38Z</time>
      </trkpt>
      <trkpt lat="43.022" lon="0.2421">
        <ele>977.85</ele>
        <time>2018-05-23T07:11:58Z</time>
      </trkpt>
      <trkpt lat="43.02185" lon="0.24193">
        <ele>979.64</ele>
        <time>2018-05-23T07:12:16Z</time>
      </trkpt>
      <trkpt lat="43.02166" lon="0.24167">
        <ele>981.41</ele>
        <time>2018-05-23T07:12:39Z</time>
      </trkpt>
      <trkpt lat="43.02162" lon="0.24152">
        <ele>982.88</ele>
        <time>2018-05-23T07:12:58Z</time>
      </trkpt>
      <trkpt lat="43.02172" lon="0.2414">
        <ele>984.52</ele>
        <time>2018-05-23T07:13:20Z</time>
      </trkpt>
      <trkpt lat="43.02174" lon="0.24119">
        <ele>986.16</ele>
        <time>2018-05-23T07:13:40Z</time>
      </trkpt>
      <trkpt lat="43.02175" lon="0.241">
        <ele>987.89</ele>
        <time>2018-05-23T07:14:00Z</time>
      </trkpt>
      <trkpt lat="43.02175" lon="0.24081">
        <ele>989.65</ele>
        <time>2018-05-23T07:14:18Z</time>
      </trkpt>
      <trkpt lat="43.02179" lon="0.24065">
        <ele>991.35</ele>
        <time>2018-05-23T07:14:38Z</time>
      </trkpt>
      <trkpt lat="43.02185" lon="0.24045">
        <ele>992.91</ele>
        <time>2018-05-23T07:14:58Z</time>
      </trkpt>
      <trkpt lat="43.0219" lon="0.24024">
        <ele>994.51</ele>
        <time>2018-05-23T07:15:16Z</time>
      </trkpt>
      <trkpt lat="43.02199" lon="0.24011">
        <ele>996.09</ele>
        <time>2018-05-23T07:15:33Z</time>
      </trkpt>
      <trkpt lat="43.0221" lon="0.23995">
        <ele>997.63</ele>
        <time>2018-05-23T07:15:53Z</time>
      </trkpt>
      <trkpt lat="43.02215" lon="0.23972">
        <ele>999.14</ele>
        <time>2018-05-23T07:16:14Z</time>
      </trkpt>
      <trkpt lat="43.02218" lon="0.2395">
        <ele>1000.6</ele>
        <time>2018-05-23T07:16:35Z</time>
      </trkpt>
      <trkpt lat="43.02226" lon="0.23935">
        <ele>1001.79</ele>
        <time>2018-05-23T07:16:53Z</time>
      </trkpt>
      <trkpt lat="43.0223" lon="0.23912">
        <ele>1002.85</ele>
        <time>2018-05-23T07:17:12Z</time>
      </trkpt>
      <trkpt lat="43.02239" lon="0.23894">
        <ele>1003.76</ele>
        <time>2018-05-23T07:17:32Z</time>
      </trkpt>
      <trkpt lat="43.02249" lon="0.23871">
        <ele>1004.82</ele>
        <time>2018-05-23T07:17:52Z</time>
      </trkpt>
      <trkpt lat="43.02248" lon="0.23862">
        <ele>1005.93</ele>
        <time>2018-05-23T07:18:02Z</time>
      </trkpt>
      <trkpt lat="43.02261" lon="0.23844">
        <ele>1007.45</ele>
        <time>2018-05-23T07:18:21Z</time>
      </trkpt>
      <trkpt lat="43.02268" lon="0.23827">
        <ele>1009.29</ele>
        <time>2018-05-23T07:18:42Z</time>
      </trkpt>
      <trkpt lat="43.02276" lon="0.23806">
        <ele>1011.2</ele>
        <time>2018-05-23T07:19:06Z</time>
      </trkpt>
      <trkpt lat="43.02277" lon="0.23785">
        <ele>1013.1</ele>
        <time>2018-05-23T07:19:31Z</time>
      </trkpt>
      <trkpt lat="43.0227" lon="0.23776">
        <ele>1014.83</ele>
        <time>2018-05-23T07:19:53Z</time>
      </trkpt>
      <trkpt lat="43.02262" lon="0.2379">
        <ele>1016.48</ele>
        <time>2018-05-23T07:20:12Z</time>
      </trkpt>
      <trkpt lat="43.02256" lon="0.23816">
        <ele>1017.98</ele>
        <time>2018-05-23T07:20:33Z</time>
      </trkpt>
      <trkpt lat="43.02242" lon="0.23829">
        <ele>1019.6</ele>
        <time>2018-05-23T07:20:55Z</time>
      </trkpt>
      <trkpt lat="43.0222" lon="0.23843">
        <ele>1021.23</ele>
        <time>2018-05-23T07:21:16Z</time>
      </trkpt>
      <trkpt lat="43.02204" lon="0.23858">
        <ele>1022.91</ele>
        <time>2018-05-23T07:21:39Z</time>
      </trkpt>
      <trkpt lat="43.02199" lon="0.23881">
        <ele>1024.66</ele>
        <time>2018-05-23T07:22:00Z</time>
      </trkpt>
      <trkpt lat="43.0219" lon="0.239">
        <ele>1026.63</ele>
        <time>2018-05-23T07:22:20Z</time>
      </trkpt>
      <trkpt lat="43.02178" lon="0.23921">
        <ele>1028.75</ele>
        <time>2018-05-23T07:22:41Z</time>
      </trkpt>
      <trkpt lat="43.02167" lon="0.23935">
        <ele>1030.98</ele>
        <time>2018-05-23T07:23:02Z</time>
      </trkpt>
      <trkpt lat="43.02149" lon="0.23948">
        <ele>1033.3</ele>
        <time>2018-05-23T07:23:24Z</time>
      </trkpt>
      <trkpt lat="43.02136" lon="0.23951">
        <ele>1035.53</ele>
        <time>2018-05-23T07:23:43Z</time>
      </trkpt>
      <trkpt lat="43.02124" lon="0.23962">
        <ele>1037.63</ele>
        <time>2018-05-23T07:24:05Z</time>
      </trkpt>
      <trkpt lat="43.02111" lon="0.23984">
        <ele>1039.57</ele>
        <time>2018-05-23T07:24:30Z</time>
      </trkpt>
      <trkpt lat="43.02102" lon="0.24">
        <ele>1041.43</ele>
        <time>2018-05-23T07:24:51Z</time>
      </trkpt>
      <trkpt lat="43.02086" lon="0.24016">
        <ele>1043.24</ele>
        <time>2018-05-23T07:25:14Z</time>
      </trkpt>
      <trkpt lat="43.02068" lon="0.24024">
        <ele>1045.05</ele>
        <time>2018-05-23T07:25:36Z</time>
      </trkpt>
      <trkpt lat="43.02056" lon="0.24033">
        <ele>1046.97</ele>
        <time>2018-05-23T07:25:55Z</time>
      </trkpt>
      <trkpt lat="43.02045" lon="0.24053">
        <ele>1049.27</ele>
        <time>2018-05-23T07:26:18Z</time>
      </trkpt>
      <trkpt lat="43.02034" lon="0.24068">
        <ele>1051.5</ele>
        <time>2018-05-23T07:26:39Z</time>
      </trkpt>
      <trkpt lat="43.02019" lon="0.24074">
        <ele>1053.57</ele>
        <time>2018-05-23T07:26:59Z</time>
      </trkpt>
      <trkpt lat="43.02006" lon="0.24075">
        <ele>1055.55</ele>
        <time>2018-05-23T07:27:22Z</time>
      </trkpt>
      <trkpt lat="43.01997" lon="0.24095">
        <ele>1057.41</ele>
        <time>2018-05-23T07:27:47Z</time>
      </trkpt>
      <trkpt lat="43.01997" lon="0.24116">
        <ele>1059.07</ele>
        <time>2018-05-23T07:28:05Z</time>
      </trkpt>
      <trkpt lat="43.01994" lon="0.24145">
        <ele>1060.54</ele>
        <time>2018-05-23T07:28:26Z</time>
      </trkpt>
      <trkpt lat="43.01993" lon="0.24157">
        <ele>1062.05</ele>
        <time>2018-05-23T07:28:42Z</time>
      </trkpt>
      <trkpt lat="43.01994" lon="0.24162">
        <ele>1063.54</ele>
        <time>2018-05-23T07:28:48Z</time>
      </trkpt>
      <trkpt lat="43.01997" lon="0.24183">
        <ele>1065.23</ele>
        <time>2018-05-23T07:29:08Z</time>
      </trkpt>
      <trkpt lat="43.02001" lon="0.24205">
        <ele>1067.03</ele>
        <time>2018-05-23T07:29:28Z</time>
      </trkpt>
      <trkpt lat="43.02006" lon="0.24224">
        <ele>1069</ele>
        <time>2018-05-23T07:29:48Z</time>
      </trkpt>
      <trkpt lat="43.02006" lon="0.24246">
        <ele>1071.09</ele>
        <time>2018-05-23T07:30:09Z</time>
      </trkpt>
      <trkpt lat="43.02005" lon="0.24269">
        <ele>1073.32</ele>
        <time>2018-05-23T07:30:30Z</time>
      </trkpt>
      <trkpt lat="43.02005" lon="0.24293">
        <ele>1075.55</ele>
        <time>2018-05-23T07:30:51Z</time>
      </trkpt>
      <trkpt lat="43.02005" lon="0.24317">
        <ele>1077.84</ele>
        <time>2018-05-23T07:31:14Z</time>
      </trkpt>
      <trkpt lat="43.02004" lon="0.24339">
        <ele>1079.82</ele>
        <time>2018-05-23T07:31:35Z</time>
      </trkpt>
      <trkpt lat="43.02002" lon="0.24348">
        <ele>1081.71</ele>
        <time>2018-05-23T07:31:59Z</time>
      </trkpt>
      <trkpt lat="43.02007" lon="0.24364">
        <ele>1083.59</ele>
        <time>2018-05-23T07:32:35Z</time>
      </trkpt>
      <trkpt lat="43.02004" lon="0.24387">
        <ele>1085.55</ele>
        <time>2018-05-23T07:32:57Z</time>
      </trkpt>
      <trkpt lat="43.02004" lon="0.24408">
        <ele>1087.54</ele>
        <time>2018-05-23T07:33:19Z</time>
      </trkpt>
      <trkpt lat="43.02006" lon="0.24424">
        <ele>1089.75</ele>
        <time>2018-05-23T07:33:37Z</time>
      </trkpt>
      <trkpt lat="43.02008" lon="0.24448">
        <ele>1091.89</ele>
        <time>2018-05-23T07:34:00Z</time>
      </trkpt>
      <trkpt lat="43.02009" lon="0.24468">
        <ele>1093.94</ele>
        <time>2018-05-23T07:34:20Z</time>
      </trkpt>
      <trkpt lat="43.01999" lon="0.24483">
        <ele>1095.66</ele>
        <time>2018-05-23T07:34:39Z</time>
      </trkpt>
      <trkpt lat="43.01992" lon="0.2446">
        <ele>1097.34</ele>
        <time>2018-05-23T07:34:57Z</time>
      </trkpt>
      <trkpt lat="43.01993" lon="0.24444">
        <ele>1098.99</ele>
        <time>2018-05-23T07:35:12Z</time>
      </trkpt>
      <trkpt lat="43.01989" lon="0.24422">
        <ele>1100.56</ele>
        <time>2018-05-23T07:35:37Z</time>
      </trkpt>
      <trkpt lat="43.01981" lon="0.24406">
        <ele>1101.95</ele>
        <time>2018-05-23T07:35:57Z</time>
      </trkpt>
      <trkpt lat="43.01982" lon="0.24385">
        <ele>1103.53</ele>
        <time>2018-05-23T07:36:16Z</time>
      </trkpt>
      <trkpt lat="43.01978" lon="0.24364">
        <ele>1105.17</ele>
        <time>2018-05-23T07:36:38Z</time>
      </trkpt>
      <trkpt lat="43.01969" lon="0.24335">
        <ele>1106.94</ele>
        <time>2018-05-23T07:37:05Z</time>
      </trkpt>
      <trkpt lat="43.01959" lon="0.24317">
        <ele>1108.58</ele>
        <time>2018-05-23T07:37:26Z</time>
      </trkpt>
      <trkpt lat="43.01952" lon="0.24294">
        <ele>1110.17</ele>
        <time>2018-05-23T07:37:47Z</time>
      </trkpt>
      <trkpt lat="43.01944" lon="0.2427">
        <ele>1111.75</ele>
        <time>2018-05-23T07:38:02Z</time>
      </trkpt>
      <trkpt lat="43.01941" lon="0.24261">
        <ele>1113.41</ele>
        <time>2018-05-23T07:38:09Z</time>
      </trkpt>
      <trkpt lat="43.01935" lon="0.24242">
        <ele>1115.28</ele>
        <time>2018-05-23T07:38:31Z</time>
      </trkpt>
      <trkpt lat="43.01924" lon="0.2422">
        <ele>1117.44</ele>
        <time>2018-05-23T07:38:52Z</time>
      </trkpt>
      <trkpt lat="43.01912" lon="0.24202">
        <ele>1119.79</ele>
        <time>2018-05-23T07:39:14Z</time>
      </trkpt>
      <trkpt lat="43.01905" lon="0.24183">
        <ele>1122.04</ele>
        <time>2018-05-23T07:39:36Z</time>
      </trkpt>
      <trkpt lat="43.01896" lon="0.24166">
        <ele>1124.05</ele>
        <time>2018-05-23T07:39:57Z</time>
      </trkpt>
      <trkpt lat="43.01881" lon="0.24145">
        <ele>1126.06</ele>
        <time>2018-05-23T07:40:21Z</time>
      </trkpt>
      <trkpt lat="43.0187" lon="0.24126">
        <ele>1127.95</ele>
        <time>2018-05-23T07:40:45Z</time>
      </trkpt>
      <trkpt lat="43.01858" lon="0.24112">
        <ele>1129.85</ele>
        <time>2018-05-23T07:41:05Z</time>
      </trkpt>
      <trkpt lat="43.0185" lon="0.24095">
        <ele>1131.64</ele>
        <time>2018-05-23T07:41:26Z</time>
      </trkpt>
      <trkpt lat="43.01839" lon="0.24061">
        <ele>1133.58</ele>
        <time>2018-05-23T07:41:46Z</time>
      </trkpt>
      <trkpt lat="43.01838" lon="0.24039">
        <ele>1135.44</ele>
        <time>2018-05-23T07:42:01Z</time>
      </trkpt>
      <trkpt lat="43.01841" lon="0.24021">
        <ele>1137.2</ele>
        <time>2018-05-23T07:42:20Z</time>
      </trkpt>
      <trkpt lat="43.0184" lon="0.24003">
        <ele>1138.96</ele>
        <time>2018-05-23T07:42:40Z</time>
      </trkpt>
      <trkpt lat="43.01839" lon="0.23983">
        <ele>1140.88</ele>
        <time>2018-05-23T07:42:58Z</time>
      </trkpt>
      <trkpt lat="43.01844" lon="0.23961">
        <ele>1142.78</ele>
        <time>2018-05-23T07:43:18Z</time>
      </trkpt>
      <trkpt lat="43.01851" lon="0.23941">
        <ele>1144.67</ele>
        <time>2018-05-23T07:43:39Z</time>
      </trkpt>
      <trkpt lat="43.01854" lon="0.23927">
        <ele>1146.59</ele>
        <time>2018-05-23T07:43:51Z</time>
      </trkpt>
      <trkpt lat="43.01865" lon="0.23908">
        <ele>1148.52</ele>
        <time>2018-05-23T07:44:12Z</time>
      </trkpt>
      <trkpt lat="43.01869" lon="0.23885">
        <ele>1150.33</ele>
        <time>2018-05-23T07:44:32Z</time>
      </trkpt>
      <trkpt lat="43.01876" lon="0.23863">
        <ele>1152.12</ele>
        <time>2018-05-23T07:44:53Z</time>
      </trkpt>
      <trkpt lat="43.01887" lon="0.23843">
        <ele>1153.81</ele>
        <time>2018-05-23T07:45:13Z</time>
      </trkpt>
      <trkpt lat="43.01901" lon="0.23823">
        <ele>1155.48</ele>
        <time>2018-05-23T07:45:34Z</time>
      </trkpt>
      <trkpt lat="43.01916" lon="0.23806">
        <ele>1157.23</ele>
        <time>2018-05-23T07:45:53Z</time>
      </trkpt>
      <trkpt lat="43.01931" lon="0.23791">
        <ele>1159.12</ele>
        <time>2018-05-23T07:46:12Z</time>
      </trkpt>
      <trkpt lat="43.01942" lon="0.23783">
        <ele>1161.03</ele>
        <time>2018-05-23T07:46:31Z</time>
      </trkpt>
      <trkpt lat="43.01959" lon="0.23771">
        <ele>1162.92</ele>
        <time>2018-05-23T07:46:51Z</time>
      </trkpt>
      <trkpt lat="43.01955" lon="0.23761">
        <ele>1164.42</ele>
        <time>2018-05-23T07:47:09Z</time>
      </trkpt>
      <trkpt lat="43.01946" lon="0.23759">
        <ele>1165.9</ele>
        <time>2018-05-23T07:47:25Z</time>
      </trkpt>
      <trkpt lat="43.01939" lon="0.23762">
        <ele>1167.53</ele>
        <time>2018-05-23T07:47:53Z</time>
      </trkpt>
      <trkpt lat="43.01922" lon="0.23771">
        <ele>1169.5</ele>
        <time>2018-05-23T07:48:14Z</time>
      </trkpt>
      <trkpt lat="43.01902" lon="0.23779">
        <ele>1171.73</ele>
        <time>2018-05-23T07:48:40Z</time>
      </trkpt>
      <trkpt lat="43.01891" lon="0.23794">
        <ele>1173.92</ele>
        <time>2018-05-23T07:49:00Z</time>
      </trkpt>
      <trkpt lat="43.01877" lon="0.2381">
        <ele>1175.65</ele>
        <time>2018-05-23T07:49:21Z</time>
      </trkpt>
      <trkpt lat="43.01855" lon="0.23814">
        <ele>1177.29</ele>
        <time>2018-05-23T07:49:44Z</time>
      </trkpt>
      <trkpt lat="43.01817" lon="0.23808">
        <ele>1178.85</ele>
        <time>2018-05-23T08:03:35Z</time>
      </trkpt>
      <trkpt lat="43.01805" lon="0.23822">
        <ele>1180.29</ele>
        <time>2018-05-23T08:03:55Z</time>
      </trkpt>
      <trkpt lat="43.01793" lon="0.23839">
        <ele>1182.13</ele>
        <time>2018-05-23T08:04:16Z</time>
      </trkpt>
      <trkpt lat="43.01784" lon="0.23852">
        <ele>1184.48</ele>
        <time>2018-05-23T08:04:33Z</time>
      </trkpt>
      <trkpt lat="43.01772" lon="0.23869">
        <ele>1186.77</ele>
        <time>2018-05-23T08:04:54Z</time>
      </trkpt>
      <trkpt lat="43.01765" lon="0.23883">
        <ele>1188.69</ele>
        <time>2018-05-23T08:05:15Z</time>
      </trkpt>
      <trkpt lat="43.01759" lon="0.23895">
        <ele>1190.5</ele>
        <time>2018-05-23T08:05:35Z</time>
      </trkpt>
      <trkpt lat="43.01757" lon="0.23903">
        <ele>1191.94</ele>
        <time>2018-05-23T08:05:58Z</time>
      </trkpt>
      <trkpt lat="43.01745" lon="0.23918">
        <ele>1193.43</ele>
        <time>2018-05-23T08:06:23Z</time>
      </trkpt>
      <trkpt lat="43.01741" lon="0.23924">
        <ele>1194.83</ele>
        <time>2018-05-23T08:06:30Z</time>
      </trkpt>
      <trkpt lat="43.01731" lon="0.23945">
        <ele>1196.8</ele>
        <time>2018-05-23T08:06:51Z</time>
      </trkpt>
      <trkpt lat="43.01725" lon="0.23964">
        <ele>1198.94</ele>
        <time>2018-05-23T08:07:10Z</time>
      </trkpt>
      <trkpt lat="43.0172" lon="0.23988">
        <ele>1201.35</ele>
        <time>2018-05-23T08:07:31Z</time>
      </trkpt>
      <trkpt lat="43.01718" lon="0.24009">
        <ele>1203.73</ele>
        <time>2018-05-23T08:07:52Z</time>
      </trkpt>
      <trkpt lat="43.01716" lon="0.24029">
        <ele>1206.17</ele>
        <time>2018-05-23T08:08:14Z</time>
      </trkpt>
      <trkpt lat="43.01712" lon="0.24044">
        <ele>1208.3</ele>
        <time>2018-05-23T08:08:36Z</time>
      </trkpt>
      <trkpt lat="43.01714" lon="0.24064">
        <ele>1210.36</ele>
        <time>2018-05-23T08:08:57Z</time>
      </trkpt>
      <trkpt lat="43.01718" lon="0.24086">
        <ele>1212.4</ele>
        <time>2018-05-23T08:09:19Z</time>
      </trkpt>
      <trkpt lat="43.01719" lon="0.24111">
        <ele>1214.4</ele>
        <time>2018-05-23T08:09:43Z</time>
      </trkpt>
      <trkpt lat="43.01714" lon="0.24128">
        <ele>1216.23</ele>
        <time>2018-05-23T08:10:03Z</time>
      </trkpt>
      <trkpt lat="43.01715" lon="0.24152">
        <ele>1218.23</ele>
        <time>2018-05-23T08:10:24Z</time>
      </trkpt>
      <trkpt lat="43.01715" lon="0.24178">
        <ele>1220.37</ele>
        <time>2018-05-23T08:10:44Z</time>
      </trkpt>
      <trkpt lat="43.01717" lon="0.24195">
        <ele>1222.42</ele>
        <time>2018-05-23T08:11:07Z</time>
      </trkpt>
      <trkpt lat="43.01719" lon="0.24214">
        <ele>1224.33</ele>
        <time>2018-05-23T08:11:26Z</time>
      </trkpt>
      <trkpt lat="43.01723" lon="0.24231">
        <ele>1226.24</ele>
        <time>2018-05-23T08:11:46Z</time>
      </trkpt>
      <trkpt lat="43.01726" lon="0.24237">
        <ele>1227.83</ele>
        <time>2018-05-23T08:11:55Z</time>
      </trkpt>
      <trkpt lat="43.01734" lon="0.24259">
        <ele>1229.33</ele>
        <time>2018-05-23T08:12:17Z</time>
      </trkpt>
      <trkpt lat="43.01737" lon="0.2427">
        <ele>1230.58</ele>
        <time>2018-05-23T08:12:40Z</time>
      </trkpt>
      <trkpt lat="43.01736" lon="0.24292">
        <ele>1232.08</ele>
        <time>2018-05-23T08:13:07Z</time>
      </trkpt>
      <trkpt lat="43.01739" lon="0.24314">
        <ele>1233.24</ele>
        <time>2018-05-23T08:13:24Z</time>
      </trkpt>
      <trkpt lat="43.0174" lon="0.24332">
        <ele>1234.23</ele>
        <time>2018-05-23T08:13:43Z</time>
      </trkpt>
      <trkpt lat="43.01741" lon="0.24332">
        <ele>1234.85</ele>
        <time>2018-05-23T08:13:50Z</time>
      </trkpt>
      <trkpt lat="43.01739" lon="0.24344">
        <ele>1235.33</ele>
        <time>2018-05-23T08:14:20Z</time>
      </trkpt>
      <trkpt lat="43.01739" lon="0.24355">
        <ele>1235.71</ele>
        <time>2018-05-23T08:14:45Z</time>
      </trkpt>
      <trkpt lat="43.01742" lon="0.24367">
        <ele>1236.58</ele>
        <time>2018-05-23T08:15:02Z</time>
      </trkpt>
      <trkpt lat="43.01743" lon="0.2438">
        <ele>1238.03</ele>
        <time>2018-05-23T08:15:23Z</time>
      </trkpt>
      <trkpt lat="43.01745" lon="0.24395">
        <ele>1240.05</ele>
        <time>2018-05-23T08:15:45Z</time>
      </trkpt>
      <trkpt lat="43.01742" lon="0.24407">
        <ele>1242.45</ele>
        <time>2018-05-23T08:16:07Z</time>
      </trkpt>
      <trkpt lat="43.01741" lon="0.2442">
        <ele>1244.83</ele>
        <time>2018-05-23T08:16:28Z</time>
      </trkpt>
      <trkpt lat="43.01739" lon="0.24429">
        <ele>1247.08</ele>
        <time>2018-05-23T08:16:54Z</time>
      </trkpt>
      <trkpt lat="43.0174" lon="0.24443">
        <ele>1249.25</ele>
        <time>2018-05-23T08:17:17Z</time>
      </trkpt>
      <trkpt lat="43.01739" lon="0.24453">
        <ele>1251.46</ele>
        <time>2018-05-23T08:17:42Z</time>
      </trkpt>
      <trkpt lat="43.01734" lon="0.24456">
        <ele>1253.98</ele>
        <time>2018-05-23T08:18:05Z</time>
      </trkpt>
      <trkpt lat="43.01729" lon="0.24455">
        <ele>1256.62</ele>
        <time>2018-05-23T08:18:24Z</time>
      </trkpt>
      <trkpt lat="43.0172" lon="0.24451">
        <ele>1259.52</ele>
        <time>2018-05-23T08:19:09Z</time>
      </trkpt>
      <trkpt lat="43.01714" lon="0.24442">
        <ele>1262.53</ele>
        <time>2018-05-23T08:19:41Z</time>
      </trkpt>
      <trkpt lat="43.01708" lon="0.24434">
        <ele>1265.42</ele>
        <time>2018-05-23T08:20:02Z</time>
      </trkpt>
      <trkpt lat="43.01701" lon="0.24426">
        <ele>1267.7</ele>
        <time>2018-05-23T08:20:26Z</time>
      </trkpt>
      <trkpt lat="43.01699" lon="0.24422">
        <ele>1269.53</ele>
        <time>2018-05-23T08:20:44Z</time>
      </trkpt>
      <trkpt lat="43.01698" lon="0.24417">
        <ele>1271.03</ele>
        <time>2018-05-23T08:21:07Z</time>
      </trkpt>
      <trkpt lat="43.01694" lon="0.24409">
        <ele>1272.33</ele>
        <time>2018-05-23T08:21:29Z</time>
      </trkpt>
      <trkpt lat="43.01686" lon="0.24395">
        <ele>1273.6</ele>
        <time>2018-05-23T08:21:51Z</time>
      </trkpt>
      <trkpt lat="43.01674" lon="0.24378">
        <ele>1275.32</ele>
        <time>2018-05-23T08:22:18Z</time>
      </trkpt>
      <trkpt lat="43.01661" lon="0.24362">
        <ele>1277.25</ele>
        <time>2018-05-23T08:22:45Z</time>
      </trkpt>
      <trkpt lat="43.0165" lon="0.24349">
        <ele>1279.3</ele>
        <time>2018-05-23T08:23:13Z</time>
      </trkpt>
      <trkpt lat="43.01642" lon="0.24336">
        <ele>1281.29</ele>
        <time>2018-05-23T08:23:38Z</time>
      </trkpt>
      <trkpt lat="43.0163" lon="0.24323">
        <ele>1283.18</ele>
        <time>2018-05-23T08:24:03Z</time>
      </trkpt>
      <trkpt lat="43.01627" lon="0.24318">
        <ele>1284.97</ele>
        <time>2018-05-23T08:24:24Z</time>
      </trkpt>
      <trkpt lat="43.01621" lon="0.24314">
        <ele>1286.84</ele>
        <time>2018-05-23T08:24:49Z</time>
      </trkpt>
      <trkpt lat="43.01607" lon="0.24301">
        <ele>1288.87</ele>
        <time>2018-05-23T08:25:18Z</time>
      </trkpt>
      <trkpt lat="43.016" lon="0.24291">
        <ele>1290.89</ele>
        <time>2018-05-23T08:25:40Z</time>
      </trkpt>
      <trkpt lat="43.01588" lon="0.24276">
        <ele>1293.04</ele>
        <time>2018-05-23T08:26:09Z</time>
      </trkpt>
      <trkpt lat="43.01584" lon="0.24276">
        <ele>1295.17</ele>
        <time>2018-05-23T08:26:33Z</time>
      </trkpt>
      <trkpt lat="43.01577" lon="0.24269">
        <ele>1297.67</ele>
        <time>2018-05-23T08:26:55Z</time>
      </trkpt>
      <trkpt lat="43.01571" lon="0.24266">
        <ele>1300.31</ele>
        <time>2018-05-23T08:27:17Z</time>
      </trkpt>
      <trkpt lat="43.01564" lon="0.24263">
        <ele>1302.77</ele>
        <time>2018-05-23T08:27:43Z</time>
      </trkpt>
      <trkpt lat="43.01558" lon="0.2426">
        <ele>1304.84</ele>
        <time>2018-05-23T08:28:04Z</time>
      </trkpt>
      <trkpt lat="43.0156" lon="0.24264">
        <ele>1306.47</ele>
        <time>2018-05-23T08:28:33Z</time>
      </trkpt>
      <trkpt lat="43.01564" lon="0.24267">
        <ele>1307.99</ele>
        <time>2018-05-23T08:29:08Z</time>
      </trkpt>
      <trkpt lat="43.01561" lon="0.24261">
        <ele>1309.5</ele>
        <time>2018-05-23T08:29:32Z</time>
      </trkpt>
      <trkpt lat="43.01555" lon="0.24257">
        <ele>1311.45</ele>
        <time>2018-05-23T08:29:52Z</time>
      </trkpt>
      <trkpt lat="43.01543" lon="0.2426">
        <ele>1313.8</ele>
        <time>2018-05-23T08:30:13Z</time>
      </trkpt>
      <trkpt lat="43.0154" lon="0.24263">
        <ele>1316.44</ele>
        <time>2018-05-23T08:30:37Z</time>
      </trkpt>
      <trkpt lat="43.01537" lon="0.24266">
        <ele>1319.21</ele>
        <time>2018-05-23T08:31:00Z</time>
      </trkpt>
      <trkpt lat="43.01529" lon="0.24267">
        <ele>1321.94</ele>
        <time>2018-05-23T08:31:23Z</time>
      </trkpt>
      <trkpt lat="43.01522" lon="0.24266">
        <ele>1324.43</ele>
        <time>2018-05-23T08:31:44Z</time>
      </trkpt>
      <trkpt lat="43.0152" lon="0.24277">
        <ele>1326.78</ele>
        <time>2018-05-23T08:32:05Z</time>
      </trkpt>
      <trkpt lat="43.01518" lon="0.24278">
        <ele>1328.92</ele>
        <time>2018-05-23T08:32:29Z</time>
      </trkpt>
      <trkpt lat="43.01516" lon="0.24273">
        <ele>1331.03</ele>
        <time>2018-05-23T08:32:51Z</time>
      </trkpt>
      <trkpt lat="43.01513" lon="0.24272">
        <ele>1333.12</ele>
        <time>2018-05-23T08:33:14Z</time>
      </trkpt>
      <trkpt lat="43.01507" lon="0.2428">
        <ele>1335.49</ele>
        <time>2018-05-23T08:33:36Z</time>
      </trkpt>
      <trkpt lat="43.015" lon="0.24294">
        <ele>1337.94</ele>
        <time>2018-05-23T08:34:00Z</time>
      </trkpt>
      <trkpt lat="43.01495" lon="0.24292">
        <ele>1340.23</ele>
        <time>2018-05-23T08:34:16Z</time>
      </trkpt>
      <trkpt lat="43.01491" lon="0.24289">
        <ele>1342.38</ele>
        <time>2018-05-23T08:34:40Z</time>
      </trkpt>
      <trkpt lat="43.0148" lon="0.24283">
        <ele>1344.13</ele>
        <time>2018-05-23T08:35:05Z</time>
      </trkpt>
      <trkpt lat="43.01477" lon="0.24279">
        <ele>1345.5</ele>
        <time>2018-05-23T08:35:30Z</time>
      </trkpt>
      <trkpt lat="43.0147" lon="0.24271">
        <ele>1346.76</ele>
        <time>2018-05-23T08:35:51Z</time>
      </trkpt>
      <trkpt lat="43.01457" lon="0.24259">
        <ele>1347.6</ele>
        <time>2018-05-23T08:36:17Z</time>
      </trkpt>
      <trkpt lat="43.01453" lon="0.24248">
        <ele>1347.95</ele>
        <time>2018-05-23T08:36:36Z</time>
      </trkpt>
      <trkpt lat="43.01451" lon="0.24234">
        <ele>1348.25</ele>
        <time>2018-05-23T08:36:56Z</time>
      </trkpt>
      <trkpt lat="43.01453" lon="0.24218">
        <ele>1348.44</ele>
        <time>2018-05-23T08:37:17Z</time>
      </trkpt>
      <trkpt lat="43.01456" lon="0.24207">
        <ele>1348.57</ele>
        <time>2018-05-23T08:37:38Z</time>
      </trkpt>
      <trkpt lat="43.01456" lon="0.24201">
        <ele>1348.64</ele>
        <time>2018-05-23T08:38:06Z</time>
      </trkpt>
      <trkpt lat="43.01454" lon="0.24188">
        <ele>1348.56</ele>
        <time>2018-05-23T08:38:22Z</time>
      </trkpt>
      <trkpt lat="43.0145" lon="0.2418">
        <ele>1348.34</ele>
        <time>2018-05-23T08:38:36Z</time>
      </trkpt>
      <trkpt lat="43.01449" lon="0.24173">
        <ele>1348</ele>
        <time>2018-05-23T08:38:51Z</time>
      </trkpt>
      <trkpt lat="43.01448" lon="0.2416">
        <ele>1347.62</ele>
        <time>2018-05-23T08:39:07Z</time>
      </trkpt>
      <trkpt lat="43.01442" lon="0.24145">
        <ele>1347.55</ele>
        <time>2018-05-23T08:39:25Z</time>
      </trkpt>
      <trkpt lat="43.01443" lon="0.24127">
        <ele>1347.88</ele>
        <time>2018-05-23T08:39:42Z</time>
      </trkpt>
      <trkpt lat="43.01443" lon="0.24112">
        <ele>1348.49</ele>
        <time>2018-05-23T08:39:59Z</time>
      </trkpt>
      <trkpt lat="43.0144" lon="0.24105">
        <ele>1349.21</ele>
        <time>2018-05-23T08:40:17Z</time>
      </trkpt>
      <trkpt lat="43.01437" lon="0.24093">
        <ele>1350.11</ele>
        <time>2018-05-23T08:40:36Z</time>
      </trkpt>
      <trkpt lat="43.01434" lon="0.24081">
        <ele>1351.04</ele>
        <time>2018-05-23T08:40:51Z</time>
      </trkpt>
      <trkpt lat="43.01432" lon="0.2407">
        <ele>1352.17</ele>
        <time>2018-05-23T08:41:07Z</time>
      </trkpt>
      <trkpt lat="43.01431" lon="0.24054">
        <ele>1353.52</ele>
        <time>2018-05-23T08:41:26Z</time>
      </trkpt>
      <trkpt lat="43.01428" lon="0.2404">
        <ele>1355.36</ele>
        <time>2018-05-23T08:41:47Z</time>
      </trkpt>
      <trkpt lat="43.01423" lon="0.2403">
        <ele>1357.6</ele>
        <time>2018-05-23T08:42:04Z</time>
      </trkpt>
      <trkpt lat="43.0142" lon="0.24018">
        <ele>1360.19</ele>
        <time>2018-05-23T08:42:30Z</time>
      </trkpt>
      <trkpt lat="43.01414" lon="0.24007">
        <ele>1362.97</ele>
        <time>2018-05-23T08:42:59Z</time>
      </trkpt>
      <trkpt lat="43.01409" lon="0.23994">
        <ele>1366.04</ele>
        <time>2018-05-23T08:43:28Z</time>
      </trkpt>
      <trkpt lat="43.01407" lon="0.23984">
        <ele>1369.09</ele>
        <time>2018-05-23T08:43:53Z</time>
      </trkpt>
      <trkpt lat="43.01401" lon="0.23972">
        <ele>1372.2</ele>
        <time>2018-05-23T08:44:18Z</time>
      </trkpt>
      <trkpt lat="43.01396" lon="0.23963">
        <ele>1375.01</ele>
        <time>2018-05-23T08:44:43Z</time>
      </trkpt>
      <trkpt lat="43.01397" lon="0.23952">
        <ele>1377.27</ele>
        <time>2018-05-23T08:45:06Z</time>
      </trkpt>
      <trkpt lat="43.01398" lon="0.23935">
        <ele>1379.13</ele>
        <time>2018-05-23T08:45:27Z</time>
      </trkpt>
      <trkpt lat="43.01399" lon="0.23927">
        <ele>1380.46</ele>
        <time>2018-05-23T08:45:43Z</time>
      </trkpt>
      <trkpt lat="43.01406" lon="0.23919">
        <ele>1382.2</ele>
        <time>2018-05-23T08:46:13Z</time>
      </trkpt>
      <trkpt lat="43.01409" lon="0.23919">
        <ele>1383.59</ele>
        <time>2018-05-23T08:46:34Z</time>
      </trkpt>
      <trkpt lat="43.01411" lon="0.23914">
        <ele>1384.9</ele>
        <time>2018-05-23T08:54:59Z</time>
      </trkpt>
      <trkpt lat="43.01413" lon="0.23916">
        <ele>1385.94</ele>
        <time>2018-05-23T08:55:24Z</time>
      </trkpt>
      <trkpt lat="43.01405" lon="0.23906">
        <ele>1387.03</ele>
        <time>2018-05-23T08:55:44Z</time>
      </trkpt>
      <trkpt lat="43.01399" lon="0.2389">
        <ele>1387.71</ele>
        <time>2018-05-23T08:56:05Z</time>
      </trkpt>
      <trkpt lat="43.01399" lon="0.23875">
        <ele>1388.75</ele>
        <time>2018-05-23T08:56:25Z</time>
      </trkpt>
      <trkpt lat="43.01399" lon="0.23858">
        <ele>1390.26</ele>
        <time>2018-05-23T08:56:48Z</time>
      </trkpt>
      <trkpt lat="43.01399" lon="0.23845">
        <ele>1392.24</ele>
        <time>2018-05-23T08:57:06Z</time>
      </trkpt>
      <trkpt lat="43.01398" lon="0.23822">
        <ele>1394.56</ele>
        <time>2018-05-23T08:57:31Z</time>
      </trkpt>
      <trkpt lat="43.01399" lon="0.23801">
        <ele>1396.74</ele>
        <time>2018-05-23T08:57:58Z</time>
      </trkpt>
      <trkpt lat="43.01403" lon="0.23781">
        <ele>1399.17</ele>
        <time>2018-05-23T08:58:25Z</time>
      </trkpt>
      <trkpt lat="43.01402" lon="0.23765">
        <ele>1401.49</ele>
        <time>2018-05-23T08:58:49Z</time>
      </trkpt>
      <trkpt lat="43.014" lon="0.23751">
        <ele>1403.68</ele>
        <time>2018-05-23T08:59:14Z</time>
      </trkpt>
      <trkpt lat="43.01401" lon="0.23747">
        <ele>1405.92</ele>
        <time>2018-05-23T08:59:40Z</time>
      </trkpt>
      <trkpt lat="43.014" lon="0.23731">
        <ele>1408.23</ele>
        <time>2018-05-23T09:00:04Z</time>
      </trkpt>
      <trkpt lat="43.01398" lon="0.23715">
        <ele>1410.34</ele>
        <time>2018-05-23T09:00:30Z</time>
      </trkpt>
      <trkpt lat="43.01398" lon="0.23703">
        <ele>1412.55</ele>
        <time>2018-05-23T09:00:52Z</time>
      </trkpt>
      <trkpt lat="43.01398" lon="0.23693">
        <ele>1414.86</ele>
        <time>2018-05-23T09:01:11Z</time>
      </trkpt>
      <trkpt lat="43.01399" lon="0.23684">
        <ele>1417.13</ele>
        <time>2018-05-23T09:01:30Z</time>
      </trkpt>
      <trkpt lat="43.01398" lon="0.23678">
        <ele>1419.49</ele>
        <time>2018-05-23T09:01:50Z</time>
      </trkpt>
      <trkpt lat="43.01398" lon="0.23666">
        <ele>1422.02</ele>
        <time>2018-05-23T09:02:14Z</time>
      </trkpt>
      <trkpt lat="43.01396" lon="0.23654">
        <ele>1424.28</ele>
        <time>2018-05-23T09:02:37Z</time>
      </trkpt>
      <trkpt lat="43.01399" lon="0.2365">
        <ele>1426.56</ele>
        <time>2018-05-23T09:02:58Z</time>
      </trkpt>
      <trkpt lat="43.01399" lon="0.23642">
        <ele>1428.94</ele>
        <time>2018-05-23T09:03:28Z</time>
      </trkpt>
      <trkpt lat="43.01401" lon="0.23633">
        <ele>1431.42</ele>
        <time>2018-05-23T09:03:51Z</time>
      </trkpt>
      <trkpt lat="43.01403" lon="0.23622">
        <ele>1434</ele>
        <time>2018-05-23T09:04:13Z</time>
      </trkpt>
      <trkpt lat="43.01402" lon="0.23613">
        <ele>1436.82</ele>
        <time>2018-05-23T09:04:37Z</time>
      </trkpt>
      <trkpt lat="43.01408" lon="0.23597">
        <ele>1439.68</ele>
        <time>2018-05-23T09:05:04Z</time>
      </trkpt>
      <trkpt lat="43.01413" lon="0.23581">
        <ele>1442.51</ele>
        <time>2018-05-23T09:05:29Z</time>
      </trkpt>
      <trkpt lat="43.01416" lon="0.23565">
        <ele>1445.17</ele>
        <time>2018-05-23T09:05:52Z</time>
      </trkpt>
      <trkpt lat="43.01417" lon="0.23551">
        <ele>1447.76</ele>
        <time>2018-05-23T09:06:15Z</time>
      </trkpt>
      <trkpt lat="43.0142" lon="0.23539">
        <ele>1450.28</ele>
        <time>2018-05-23T09:06:35Z</time>
      </trkpt>
      <trkpt lat="43.01422" lon="0.23523">
        <ele>1452.42</ele>
        <time>2018-05-23T09:07:00Z</time>
      </trkpt>
      <trkpt lat="43.01423" lon="0.2352">
        <ele>1454.46</ele>
        <time>2018-05-23T09:07:22Z</time>
      </trkpt>
      <trkpt lat="43.01428" lon="0.23512">
        <ele>1456.7</ele>
        <time>2018-05-23T09:08:25Z</time>
      </trkpt>
      <trkpt lat="43.01436" lon="0.23501">
        <ele>1459.1</ele>
        <time>2018-05-23T09:08:47Z</time>
      </trkpt>
      <trkpt lat="43.01442" lon="0.23491">
        <ele>1461.71</ele>
        <time>2018-05-23T09:09:10Z</time>
      </trkpt>
      <trkpt lat="43.01447" lon="0.2348">
        <ele>1464.65</ele>
        <time>2018-05-23T09:09:38Z</time>
      </trkpt>
      <trkpt lat="43.01455" lon="0.23471">
        <ele>1467.57</ele>
        <time>2018-05-23T09:10:04Z</time>
      </trkpt>
      <trkpt lat="43.01464" lon="0.23464">
        <ele>1470.28</ele>
        <time>2018-05-23T09:10:28Z</time>
      </trkpt>
      <trkpt lat="43.01476" lon="0.23454">
        <ele>1472.87</ele>
        <time>2018-05-23T09:10:59Z</time>
      </trkpt>
      <trkpt lat="43.01481" lon="0.23448">
        <ele>1475.21</ele>
        <time>2018-05-23T09:11:20Z</time>
      </trkpt>
      <trkpt lat="43.01489" lon="0.23439">
        <ele>1477.21</ele>
        <time>2018-05-23T09:11:42Z</time>
      </trkpt>
      <trkpt lat="43.01492" lon="0.23433">
        <ele>1478.82</ele>
        <time>2018-05-23T09:12:08Z</time>
      </trkpt>
      <trkpt lat="43.01496" lon="0.23428">
        <ele>1480.27</ele>
        <time>2018-05-23T09:12:41Z</time>
      </trkpt>
      <trkpt lat="43.01505" lon="0.23419">
        <ele>1481.93</ele>
        <time>2018-05-23T09:13:01Z</time>
      </trkpt>
      <trkpt lat="43.01514" lon="0.23409">
        <ele>1483.82</ele>
        <time>2018-05-23T09:13:20Z</time>
      </trkpt>
      <trkpt lat="43.01519" lon="0.23403">
        <ele>1486.2</ele>
        <time>2018-05-23T09:13:41Z</time>
      </trkpt>
      <trkpt lat="43.01516" lon="0.23394">
        <ele>1488.64</ele>
        <time>2018-05-23T09:14:03Z</time>
      </trkpt>
      <trkpt lat="43.01513" lon="0.23388">
        <ele>1491.22</ele>
        <time>2018-05-23T09:14:23Z</time>
      </trkpt>
      <trkpt lat="43.01509" lon="0.23388">
        <ele>1493.74</ele>
        <time>2018-05-23T09:14:51Z</time>
      </trkpt>
      <trkpt lat="43.0151" lon="0.23381">
        <ele>1496.13</ele>
        <time>2018-05-23T09:15:19Z</time>
      </trkpt>
      <trkpt lat="43.0151" lon="0.23373">
        <ele>1498.63</ele>
        <time>2018-05-23T09:15:39Z</time>
      </trkpt>
      <trkpt lat="43.01511" lon="0.23366">
        <ele>1501.42</ele>
        <time>2018-05-23T09:16:00Z</time>
      </trkpt>
      <trkpt lat="43.0151" lon="0.2336">
        <ele>1504.54</ele>
        <time>2018-05-23T09:16:48Z</time>
      </trkpt>
      <trkpt lat="43.01505" lon="0.23355">
        <ele>1507.61</ele>
        <time>2018-05-23T09:17:11Z</time>
      </trkpt>
      <trkpt lat="43.01505" lon="0.23346">
        <ele>1510.74</ele>
        <time>2018-05-23T09:17:52Z</time>
      </trkpt>
      <trkpt lat="43.0151" lon="0.23337">
        <ele>1513.83</ele>
        <time>2018-05-23T09:18:12Z</time>
      </trkpt>
      <trkpt lat="43.01506" lon="0.23331">
        <ele>1516.88</ele>
        <time>2018-05-23T09:19:28Z</time>
      </trkpt>
      <trkpt lat="43.01505" lon="0.23326">
        <ele>1519.45</ele>
        <time>2018-05-23T09:19:46Z</time>
      </trkpt>
      <trkpt lat="43.01504" lon="0.23319">
        <ele>1521.85</ele>
        <time>2018-05-23T09:20:06Z</time>
      </trkpt>
      <trkpt lat="43.01503" lon="0.23314">
        <ele>1524.35</ele>
        <time>2018-05-23T09:20:34Z</time>
      </trkpt>
      <trkpt lat="43.01502" lon="0.23309">
        <ele>1526.88</ele>
        <time>2018-05-23T09:21:00Z</time>
      </trkpt>
      <trkpt lat="43.01498" lon="0.23305">
        <ele>1529.44</ele>
        <time>2018-05-23T09:21:15Z</time>
      </trkpt>
      <trkpt lat="43.01495" lon="0.23298">
        <ele>1532.48</ele>
        <time>2018-05-23T09:22:14Z</time>
      </trkpt>
      <trkpt lat="43.01488" lon="0.23294">
        <ele>1535.3</ele>
        <time>2018-05-23T09:22:36Z</time>
      </trkpt>
      <trkpt lat="43.01482" lon="0.23291">
        <ele>1537.83</ele>
        <time>2018-05-23T09:23:17Z</time>
      </trkpt>
      <trkpt lat="43.01479" lon="0.2329">
        <ele>1540.27</ele>
        <time>2018-05-23T09:23:44Z</time>
      </trkpt>
      <trkpt lat="43.01471" lon="0.23286">
        <ele>1542.93</ele>
        <time>2018-05-23T09:24:06Z</time>
      </trkpt>
      <trkpt lat="43.01464" lon="0.23284">
        <ele>1545.44</ele>
        <time>2018-05-23T09:24:27Z</time>
      </trkpt>
      <trkpt lat="43.01469" lon="0.23272">
        <ele>1548.34</ele>
        <time>2018-05-23T09:25:17Z</time>
      </trkpt>
      <trkpt lat="43.01472" lon="0.23267">
        <ele>1551.17</ele>
        <time>2018-05-23T09:25:34Z</time>
      </trkpt>
      <trkpt lat="43.01477" lon="0.2326">
        <ele>1553.96</ele>
        <time>2018-05-23T09:25:57Z</time>
      </trkpt>
      <trkpt lat="43.01478" lon="0.23255">
        <ele>1556.54</ele>
        <time>2018-05-23T09:26:25Z</time>
      </trkpt>
      <trkpt lat="43.01475" lon="0.23245">
        <ele>1559.15</ele>
        <time>2018-05-23T09:26:52Z</time>
      </trkpt>
      <trkpt lat="43.01473" lon="0.2324">
        <ele>1561.83</ele>
        <time>2018-05-23T09:27:25Z</time>
      </trkpt>
      <trkpt lat="43.01471" lon="0.23231">
        <ele>1564.84</ele>
        <time>2018-05-23T09:27:50Z</time>
      </trkpt>
      <trkpt lat="43.01466" lon="0.23221">
        <ele>1567.79</ele>
        <time>2018-05-23T09:28:17Z</time>
      </trkpt>
      <trkpt lat="43.01461" lon="0.23215">
        <ele>1570.6</ele>
        <time>2018-05-23T09:28:40Z</time>
      </trkpt>
      <trkpt lat="43.01457" lon="0.23207">
        <ele>1573.23</ele>
        <time>2018-05-23T09:29:03Z</time>
      </trkpt>
      <trkpt lat="43.01454" lon="0.23203">
        <ele>1575.76</ele>
        <time>2018-05-23T09:29:32Z</time>
      </trkpt>
      <trkpt lat="43.01446" lon="0.23195">
        <ele>1578.37</ele>
        <time>2018-05-23T09:29:55Z</time>
      </trkpt>
      <trkpt lat="43.01437" lon="0.23185">
        <ele>1580.95</ele>
        <time>2018-05-23T09:30:18Z</time>
      </trkpt>
      <trkpt lat="43.01433" lon="0.23175">
        <ele>1583.54</ele>
        <time>2018-05-23T09:30:41Z</time>
      </trkpt>
      <trkpt lat="43.01431" lon="0.23164">
        <ele>1585.67</ele>
        <time>2018-05-23T09:31:00Z</time>
      </trkpt>
      <trkpt lat="43.01423" lon="0.23159">
        <ele>1587.4</ele>
        <time>2018-05-23T09:31:17Z</time>
      </trkpt>
      <trkpt lat="43.0141" lon="0.23154">
        <ele>1588.72</ele>
        <time>2018-05-23T09:31:36Z</time>
      </trkpt>
      <trkpt lat="43.014" lon="0.23148">
        <ele>1589.97</ele>
        <time>2018-05-23T09:31:53Z</time>
      </trkpt>
      <trkpt lat="43.01386" lon="0.23141">
        <ele>1591.13</ele>
        <time>2018-05-23T09:32:15Z</time>
      </trkpt>
      <trkpt lat="43.01379" lon="0.23132">
        <ele>1592.23</ele>
        <time>2018-05-23T09:32:36Z</time>
      </trkpt>
      <trkpt lat="43.01376" lon="0.23132">
        <ele>1593.41</ele>
        <time>2018-05-23T09:32:54Z</time>
      </trkpt>
      <trkpt lat="43.01375" lon="0.23129">
        <ele>1594.22</ele>
        <time>2018-05-23T09:33:14Z</time>
      </trkpt>
      <trkpt lat="43.01375" lon="0.2313">
        <ele>1595</ele>
        <time>2018-05-23T09:37:09Z</time>
      </trkpt>
      <trkpt lat="43.01377" lon="0.2313">
        <ele>1594.94</ele>
        <time>2018-05-23T09:39:44Z</time>
      </trkpt>
      <trkpt lat="43.01379" lon="0.23128">
        <ele>1594.69</ele>
        <time>2018-05-23T09:51:26Z</time>
      </trkpt>
      <trkpt lat="43.01387" lon="0.23137">
        <ele>1594.08</ele>
        <time>2018-05-23T09:51:43Z</time>
      </trkpt>
      <trkpt lat="43.01399" lon="0.23143">
        <ele>1593.69</ele>
        <time>2018-05-23T09:52:00Z</time>
      </trkpt>
      <trkpt lat="43.01411" lon="0.23145">
        <ele>1592.94</ele>
        <time>2018-05-23T09:52:20Z</time>
      </trkpt>
      <trkpt lat="43.01419" lon="0.2315">
        <ele>1592.51</ele>
        <time>2018-05-23T09:52:39Z</time>
      </trkpt>
      <trkpt lat="43.01426" lon="0.23153">
        <ele>1591.83</ele>
        <time>2018-05-23T09:53:44Z</time>
      </trkpt>
      <trkpt lat="43.01424" lon="0.23164">
        <ele>1590.7</ele>
        <time>2018-05-23T09:54:06Z</time>
      </trkpt>
      <trkpt lat="43.01422" lon="0.23176">
        <ele>1588.9</ele>
        <time>2018-05-23T09:54:24Z</time>
      </trkpt>
      <trkpt lat="43.01416" lon="0.23188">
        <ele>1586.58</ele>
        <time>2018-05-23T09:54:44Z</time>
      </trkpt>
      <trkpt lat="43.01415" lon="0.23198">
        <ele>1584.06</ele>
        <time>2018-05-23T09:55:02Z</time>
      </trkpt>
      <trkpt lat="43.01415" lon="0.23208">
        <ele>1581.6</ele>
        <time>2018-05-23T09:55:18Z</time>
      </trkpt>
      <trkpt lat="43.01419" lon="0.23218">
        <ele>1579.42</ele>
        <time>2018-05-23T09:55:35Z</time>
      </trkpt>
      <trkpt lat="43.01422" lon="0.23225">
        <ele>1577.2</ele>
        <time>2018-05-23T09:55:53Z</time>
      </trkpt>
      <trkpt lat="43.01424" lon="0.2323">
        <ele>1575.05</ele>
        <time>2018-05-23T09:56:13Z</time>
      </trkpt>
      <trkpt lat="43.01423" lon="0.23239">
        <ele>1572.71</ele>
        <time>2018-05-23T09:56:31Z</time>
      </trkpt>
      <trkpt lat="43.01423" lon="0.23247">
        <ele>1570.19</ele>
        <time>2018-05-23T09:56:50Z</time>
      </trkpt>
      <trkpt lat="43.01426" lon="0.23256">
        <ele>1567.3</ele>
        <time>2018-05-23T09:57:08Z</time>
      </trkpt>
      <trkpt lat="43.0143" lon="0.23264">
        <ele>1564.39</ele>
        <time>2018-05-23T09:57:27Z</time>
      </trkpt>
      <trkpt lat="43.01432" lon="0.23271">
        <ele>1561.43</ele>
        <time>2018-05-23T09:57:44Z</time>
      </trkpt>
      <trkpt lat="43.01434" lon="0.2328">
        <ele>1558.55</ele>
        <time>2018-05-23T09:58:03Z</time>
      </trkpt>
      <trkpt lat="43.01441" lon="0.23285">
        <ele>1556.03</ele>
        <time>2018-05-23T09:58:20Z</time>
      </trkpt>
      <trkpt lat="43.01446" lon="0.23288">
        <ele>1553.63</ele>
        <time>2018-05-23T09:58:36Z</time>
      </trkpt>
      <trkpt lat="43.01449" lon="0.23296">
        <ele>1551.22</ele>
        <time>2018-05-23T09:58:58Z</time>
      </trkpt>
      <trkpt lat="43.01451" lon="0.23308">
        <ele>1548.72</ele>
        <time>2018-05-23T09:59:17Z</time>
      </trkpt>
      <trkpt lat="43.01453" lon="0.23317">
        <ele>1546.12</ele>
        <time>2018-05-23T09:59:33Z</time>
      </trkpt>
      <trkpt lat="43.01456" lon="0.23322">
        <ele>1543.09</ele>
        <time>2018-05-23T09:59:46Z</time>
      </trkpt>
      <trkpt lat="43.01461" lon="0.23327">
        <ele>1539.94</ele>
        <time>2018-05-23T10:00:02Z</time>
      </trkpt>
      <trkpt lat="43.01463" lon="0.23334">
        <ele>1536.81</ele>
        <time>2018-05-23T10:00:17Z</time>
      </trkpt>
      <trkpt lat="43.01465" lon="0.2334">
        <ele>1533.85</ele>
        <time>2018-05-23T10:00:33Z</time>
      </trkpt>
      <trkpt lat="43.01469" lon="0.23345">
        <ele>1530.94</ele>
        <time>2018-05-23T10:00:48Z</time>
      </trkpt>
      <trkpt lat="43.01467" lon="0.23353">
        <ele>1528.02</ele>
        <time>2018-05-23T10:01:10Z</time>
      </trkpt>
      <trkpt lat="43.01462" lon="0.23365">
        <ele>1525.05</ele>
        <time>2018-05-23T10:01:32Z</time>
      </trkpt>
      <trkpt lat="43.0146" lon="0.23374">
        <ele>1522.14</ele>
        <time>2018-05-23T10:01:50Z</time>
      </trkpt>
      <trkpt lat="43.01455" lon="0.23382">
        <ele>1519.17</ele>
        <time>2018-05-23T10:02:12Z</time>
      </trkpt>
      <trkpt lat="43.01449" lon="0.2339">
        <ele>1516.31</ele>
        <time>2018-05-23T10:02:33Z</time>
      </trkpt>
      <trkpt lat="43.01445" lon="0.23398">
        <ele>1513.95</ele>
        <time>2018-05-23T10:02:57Z</time>
      </trkpt>
      <trkpt lat="43.01442" lon="0.23402">
        <ele>1512.2</ele>
        <time>2018-05-23T10:03:19Z</time>
      </trkpt>
      <trkpt lat="43.01439" lon="0.234">
        <ele>1511.16</ele>
        <time>2018-05-23T10:04:13Z</time>
      </trkpt>
      <trkpt lat="43.0144" lon="0.23395">
        <ele>1510.63</ele>
        <time>2018-05-23T10:06:29Z</time>
      </trkpt>
      <trkpt lat="43.01438" lon="0.23393">
        <ele>1510.67</ele>
        <time>2018-05-23T10:09:24Z</time>
      </trkpt>
      <trkpt lat="43.0144" lon="0.23395">
        <ele>1510.81</ele>
        <time>2018-05-23T10:11:52Z</time>
      </trkpt>
      <trkpt lat="43.01439" lon="0.23396">
        <ele>1510.94</ele>
        <time>2018-05-23T10:17:23Z</time>
      </trkpt>
      <trkpt lat="43.01442" lon="0.23401">
        <ele>1511.06</ele>
        <time>2018-05-23T10:18:39Z</time>
      </trkpt>
      <trkpt lat="43.01438" lon="0.23402">
        <ele>1510.44</ele>
        <time>2018-05-23T10:21:27Z</time>
      </trkpt>
      <trkpt lat="43.01441" lon="0.23401">
        <ele>1509.3</ele>
        <time>2018-05-23T10:21:54Z</time>
      </trkpt>
      <trkpt lat="43.01429" lon="0.23411">
        <ele>1507.53</ele>
        <time>2018-05-23T10:23:56Z</time>
      </trkpt>
      <trkpt lat="43.01421" lon="0.23417">
        <ele>1505.2</ele>
        <time>2018-05-23T10:24:19Z</time>
      </trkpt>
      <trkpt lat="43.01414" lon="0.23421">
        <ele>1502.64</ele>
        <time>2018-05-23T10:24:42Z</time>
      </trkpt>
      <trkpt lat="43.01408" lon="0.23426">
        <ele>1500.46</ele>
        <time>2018-05-23T10:25:03Z</time>
      </trkpt>
      <trkpt lat="43.01411" lon="0.23426">
        <ele>1498.18</ele>
        <time>2018-05-23T10:25:25Z</time>
      </trkpt>
      <trkpt lat="43.0141" lon="0.23434">
        <ele>1495.82</ele>
        <time>2018-05-23T10:25:46Z</time>
      </trkpt>
      <trkpt lat="43.01409" lon="0.23441">
        <ele>1493.42</ele>
        <time>2018-05-23T10:26:07Z</time>
      </trkpt>
      <trkpt lat="43.01407" lon="0.23448">
        <ele>1490.7</ele>
        <time>2018-05-23T10:26:26Z</time>
      </trkpt>
      <trkpt lat="43.01406" lon="0.23455">
        <ele>1487.74</ele>
        <time>2018-05-23T10:26:45Z</time>
      </trkpt>
      <trkpt lat="43.01403" lon="0.23468">
        <ele>1484.87</ele>
        <time>2018-05-23T10:27:07Z</time>
      </trkpt>
      <trkpt lat="43.01401" lon="0.23481">
        <ele>1482.03</ele>
        <time>2018-05-23T10:27:24Z</time>
      </trkpt>
      <trkpt lat="43.014" lon="0.23493">
        <ele>1479.33</ele>
        <time>2018-05-23T10:27:40Z</time>
      </trkpt>
      <trkpt lat="43.014" lon="0.23509">
        <ele>1476.93</ele>
        <time>2018-05-23T10:28:01Z</time>
      </trkpt>
      <trkpt lat="43.01399" lon="0.23521">
        <ele>1474.68</ele>
        <time>2018-05-23T10:28:21Z</time>
      </trkpt>
      <trkpt lat="43.01399" lon="0.23531">
        <ele>1472.33</ele>
        <time>2018-05-23T10:28:37Z</time>
      </trkpt>
      <trkpt lat="43.01399" lon="0.23541">
        <ele>1469.85</ele>
        <time>2018-05-23T10:28:55Z</time>
      </trkpt>
      <trkpt lat="43.01398" lon="0.23551">
        <ele>1467.27</ele>
        <time>2018-05-23T10:29:15Z</time>
      </trkpt>
      <trkpt lat="43.01395" lon="0.23562">
        <ele>1464.28</ele>
        <time>2018-05-23T10:29:38Z</time>
      </trkpt>
      <trkpt lat="43.01398" lon="0.23569">
        <ele>1461.26</ele>
        <time>2018-05-23T10:29:54Z</time>
      </trkpt>
      <trkpt lat="43.01399" lon="0.23579">
        <ele>1458.22</ele>
        <time>2018-05-23T10:30:15Z</time>
      </trkpt>
      <trkpt lat="43.01398" lon="0.23591">
        <ele>1455.15</ele>
        <time>2018-05-23T10:30:36Z</time>
      </trkpt>
      <trkpt lat="43.01397" lon="0.23599">
        <ele>1452.15</ele>
        <time>2018-05-23T10:30:54Z</time>
      </trkpt>
      <trkpt lat="43.01398" lon="0.2361">
        <ele>1449.25</ele>
        <time>2018-05-23T10:31:14Z</time>
      </trkpt>
      <trkpt lat="43.01399" lon="0.23622">
        <ele>1446.45</ele>
        <time>2018-05-23T10:31:38Z</time>
      </trkpt>
      <trkpt lat="43.01402" lon="0.2363">
        <ele>1443.69</ele>
        <time>2018-05-23T10:31:56Z</time>
      </trkpt>
      <trkpt lat="43.014" lon="0.23642">
        <ele>1440.89</ele>
        <time>2018-05-23T10:32:16Z</time>
      </trkpt>
      <trkpt lat="43.01398" lon="0.23654">
        <ele>1438.24</ele>
        <time>2018-05-23T10:32:34Z</time>
      </trkpt>
      <trkpt lat="43.01401" lon="0.23663">
        <ele>1435.51</ele>
        <time>2018-05-23T10:32:51Z</time>
      </trkpt>
      <trkpt lat="43.01401" lon="0.23671">
        <ele>1432.68</ele>
        <time>2018-05-23T10:33:08Z</time>
      </trkpt>
      <trkpt lat="43.014" lon="0.23683">
        <ele>1429.83</ele>
        <time>2018-05-23T10:33:29Z</time>
      </trkpt>
      <trkpt lat="43.014" lon="0.23693">
        <ele>1427.04</ele>
        <time>2018-05-23T10:33:45Z</time>
      </trkpt>
      <trkpt lat="43.01399" lon="0.23707">
        <ele>1424.04</ele>
        <time>2018-05-23T10:34:02Z</time>
      </trkpt>
      <trkpt lat="43.014" lon="0.23727">
        <ele>1420.94</ele>
        <time>2018-05-23T10:34:21Z</time>
      </trkpt>
      <trkpt lat="43.01401" lon="0.23746">
        <ele>1417.94</ele>
        <time>2018-05-23T10:34:40Z</time>
      </trkpt>
      <trkpt lat="43.01402" lon="0.2376">
        <ele>1415.22</ele>
        <time>2018-05-23T10:34:59Z</time>
      </trkpt>
      <trkpt lat="43.01403" lon="0.23777">
        <ele>1412.77</ele>
        <time>2018-05-23T10:35:18Z</time>
      </trkpt>
      <trkpt lat="43.01405" lon="0.23795">
        <ele>1410.65</ele>
        <time>2018-05-23T10:35:34Z</time>
      </trkpt>
      <trkpt lat="43.01406" lon="0.23812">
        <ele>1408.87</ele>
        <time>2018-05-23T10:35:46Z</time>
      </trkpt>
      <trkpt lat="43.01406" lon="0.23828">
        <ele>1407.21</ele>
        <time>2018-05-23T10:36:03Z</time>
      </trkpt>
      <trkpt lat="43.01404" lon="0.23846">
        <ele>1405.34</ele>
        <time>2018-05-23T10:36:21Z</time>
      </trkpt>
      <trkpt lat="43.014" lon="0.23863">
        <ele>1403.48</ele>
        <time>2018-05-23T10:36:38Z</time>
      </trkpt>
      <trkpt lat="43.01398" lon="0.23879">
        <ele>1401.73</ele>
        <time>2018-05-23T10:37:00Z</time>
      </trkpt>
      <trkpt lat="43.014" lon="0.23884">
        <ele>1399.9</ele>
        <time>2018-05-23T10:37:16Z</time>
      </trkpt>
      <trkpt lat="43.01396" lon="0.23903">
        <ele>1398.14</ele>
        <time>2018-05-23T10:38:21Z</time>
      </trkpt>
      <trkpt lat="43.01391" lon="0.23922">
        <ele>1396.8</ele>
        <time>2018-05-23T10:38:42Z</time>
      </trkpt>
      <trkpt lat="43.01388" lon="0.23939">
        <ele>1395.49</ele>
        <time>2018-05-23T10:39:00Z</time>
      </trkpt>
      <trkpt lat="43.01386" lon="0.23955">
        <ele>1394.17</ele>
        <time>2018-05-23T10:39:21Z</time>
      </trkpt>
      <trkpt lat="43.01389" lon="0.23967">
        <ele>1393.49</ele>
        <time>2018-05-23T10:39:39Z</time>
      </trkpt>
      <trkpt lat="43.01394" lon="0.2397">
        <ele>1392.63</ele>
        <time>2018-05-23T10:40:04Z</time>
      </trkpt>
      <trkpt lat="43.01398" lon="0.23968">
        <ele>1391.6</ele>
        <time>2018-05-23T10:40:31Z</time>
      </trkpt>
      <trkpt lat="43.01399" lon="0.23964">
        <ele>1390.32</ele>
        <time>2018-05-23T10:53:20Z</time>
      </trkpt>
      <trkpt lat="43.01403" lon="0.23981">
        <ele>1388.67</ele>
        <time>2018-05-23T10:56:50Z</time>
      </trkpt>
      <trkpt lat="43.01408" lon="0.23994">
        <ele>1386.21</ele>
        <time>2018-05-23T10:57:12Z</time>
      </trkpt>
      <trkpt lat="43.01415" lon="0.24006">
        <ele>1383.66</ele>
        <time>2018-05-23T10:57:33Z</time>
      </trkpt>
      <trkpt lat="43.01423" lon="0.24017">
        <ele>1380.91</ele>
        <time>2018-05-23T10:57:53Z</time>
      </trkpt>
      <trkpt lat="43.0143" lon="0.24028">
        <ele>1378.35</ele>
        <time>2018-05-23T10:58:10Z</time>
      </trkpt>
      <trkpt lat="43.01437" lon="0.24043">
        <ele>1376.13</ele>
        <time>2018-05-23T10:58:28Z</time>
      </trkpt>
      <trkpt lat="43.01443" lon="0.24062">
        <ele>1374.39</ele>
        <time>2018-05-23T10:58:48Z</time>
      </trkpt>
      <trkpt lat="43.01448" lon="0.24081">
        <ele>1373.08</ele>
        <time>2018-05-23T10:59:08Z</time>
      </trkpt>
      <trkpt lat="43.01448" lon="0.24087">
        <ele>1372.05</ele>
        <time>2018-05-23T10:59:26Z</time>
      </trkpt>
      <trkpt lat="43.01448" lon="0.24093">
        <ele>1371.14</ele>
        <time>2018-05-23T10:59:49Z</time>
      </trkpt>
      <trkpt lat="43.01446" lon="0.24101">
        <ele>1370.25</ele>
        <time>2018-05-23T11:00:05Z</time>
      </trkpt>
      <trkpt lat="43.01448" lon="0.24116">
        <ele>1369.46</ele>
        <time>2018-05-23T11:00:21Z</time>
      </trkpt>
      <trkpt lat="43.0145" lon="0.2413">
        <ele>1368.91</ele>
        <time>2018-05-23T11:00:36Z</time>
      </trkpt>
      <trkpt lat="43.01451" lon="0.24145">
        <ele>1368.7</ele>
        <time>2018-05-23T11:00:53Z</time>
      </trkpt>
      <trkpt lat="43.01454" lon="0.2416">
        <ele>1368.93</ele>
        <time>2018-05-23T11:01:11Z</time>
      </trkpt>
      <trkpt lat="43.0146" lon="0.24177">
        <ele>1369.21</ele>
        <time>2018-05-23T11:01:34Z</time>
      </trkpt>
      <trkpt lat="43.0146" lon="0.24185">
        <ele>1369.5</ele>
        <time>2018-05-23T11:01:57Z</time>
      </trkpt>
      <trkpt lat="43.0146" lon="0.24198">
        <ele>1369.76</ele>
        <time>2018-05-23T11:02:19Z</time>
      </trkpt>
      <trkpt lat="43.01458" lon="0.24212">
        <ele>1369.95</ele>
        <time>2018-05-23T11:02:39Z</time>
      </trkpt>
      <trkpt lat="43.01457" lon="0.24232">
        <ele>1369.89</ele>
        <time>2018-05-23T11:03:00Z</time>
      </trkpt>
      <trkpt lat="43.01461" lon="0.24244">
        <ele>1369.69</ele>
        <time>2018-05-23T11:03:19Z</time>
      </trkpt>
      <trkpt lat="43.01465" lon="0.24247">
        <ele>1369.34</ele>
        <time>2018-05-23T11:03:37Z</time>
      </trkpt>
      <trkpt lat="43.01473" lon="0.2426">
        <ele>1368.83</ele>
        <time>2018-05-23T11:03:59Z</time>
      </trkpt>
      <trkpt lat="43.01479" lon="0.24274">
        <ele>1367.94</ele>
        <time>2018-05-23T11:04:20Z</time>
      </trkpt>
      <trkpt lat="43.01483" lon="0.24285">
        <ele>1366.92</ele>
        <time>2018-05-23T11:04:38Z</time>
      </trkpt>
      <trkpt lat="43.01495" lon="0.24294">
        <ele>1365.65</ele>
        <time>2018-05-23T11:05:02Z</time>
      </trkpt>
      <trkpt lat="43.01499" lon="0.24292">
        <ele>1363.96</ele>
        <time>2018-05-23T11:05:28Z</time>
      </trkpt>
      <trkpt lat="43.01504" lon="0.24298">
        <ele>1361.74</ele>
        <time>2018-05-23T11:05:48Z</time>
      </trkpt>
      <trkpt lat="43.01514" lon="0.24301">
        <ele>1359.24</ele>
        <time>2018-05-23T11:06:11Z</time>
      </trkpt>
      <trkpt lat="43.01521" lon="0.24303">
        <ele>1356.36</ele>
        <time>2018-05-23T11:06:33Z</time>
      </trkpt>
      <trkpt lat="43.01527" lon="0.24303">
        <ele>1353.33</ele>
        <time>2018-05-23T11:06:51Z</time>
      </trkpt>
      <trkpt lat="43.01536" lon="0.24301">
        <ele>1350.23</ele>
        <time>2018-05-23T11:07:09Z</time>
      </trkpt>
      <trkpt lat="43.01542" lon="0.24299">
        <ele>1347.14</ele>
        <time>2018-05-23T11:07:25Z</time>
      </trkpt>
      <trkpt lat="43.01549" lon="0.24298">
        <ele>1344.05</ele>
        <time>2018-05-23T11:07:42Z</time>
      </trkpt>
      <trkpt lat="43.01555" lon="0.24299">
        <ele>1340.95</ele>
        <time>2018-05-23T11:08:01Z</time>
      </trkpt>
      <trkpt lat="43.01561" lon="0.24297">
        <ele>1337.88</ele>
        <time>2018-05-23T11:08:19Z</time>
      </trkpt>
      <trkpt lat="43.01566" lon="0.24297">
        <ele>1334.84</ele>
        <time>2018-05-23T11:08:35Z</time>
      </trkpt>
      <trkpt lat="43.01574" lon="0.24299">
        <ele>1331.79</ele>
        <time>2018-05-23T11:08:55Z</time>
      </trkpt>
      <trkpt lat="43.01581" lon="0.24299">
        <ele>1328.76</ele>
        <time>2018-05-23T11:09:13Z</time>
      </trkpt>
      <trkpt lat="43.01588" lon="0.24299">
        <ele>1325.78</ele>
        <time>2018-05-23T11:09:31Z</time>
      </trkpt>
      <trkpt lat="43.01596" lon="0.24298">
        <ele>1322.9</ele>
        <time>2018-05-23T11:09:51Z</time>
      </trkpt>
      <trkpt lat="43.01601" lon="0.24298">
        <ele>1320.4</ele>
        <time>2018-05-23T11:10:06Z</time>
      </trkpt>
      <trkpt lat="43.01609" lon="0.24299">
        <ele>1318.13</ele>
        <time>2018-05-23T11:10:25Z</time>
      </trkpt>
      <trkpt lat="43.01617" lon="0.24306">
        <ele>1316.16</ele>
        <time>2018-05-23T11:10:40Z</time>
      </trkpt>
      <trkpt lat="43.01624" lon="0.24313">
        <ele>1314.32</ele>
        <time>2018-05-23T11:10:55Z</time>
      </trkpt>
      <trkpt lat="43.01631" lon="0.24321">
        <ele>1312.58</ele>
        <time>2018-05-23T11:11:10Z</time>
      </trkpt>
      <trkpt lat="43.0164" lon="0.24333">
        <ele>1310.92</ele>
        <time>2018-05-23T11:11:30Z</time>
      </trkpt>
      <trkpt lat="43.01647" lon="0.24342">
        <ele>1309.24</ele>
        <time>2018-05-23T11:11:47Z</time>
      </trkpt>
      <trkpt lat="43.01654" lon="0.24353">
        <ele>1307.54</ele>
        <time>2018-05-23T11:12:06Z</time>
      </trkpt>
      <trkpt lat="43.01666" lon="0.24367">
        <ele>1305.94</ele>
        <time>2018-05-23T11:12:31Z</time>
      </trkpt>
      <trkpt lat="43.01676" lon="0.2438">
        <ele>1304.45</ele>
        <time>2018-05-23T11:12:49Z</time>
      </trkpt>
      <trkpt lat="43.01686" lon="0.24393">
        <ele>1302.83</ele>
        <time>2018-05-23T11:13:06Z</time>
      </trkpt>
      <trkpt lat="43.01695" lon="0.24405">
        <ele>1301.25</ele>
        <time>2018-05-23T11:13:23Z</time>
      </trkpt>
      <trkpt lat="43.01703" lon="0.24422">
        <ele>1299.85</ele>
        <time>2018-05-23T11:13:43Z</time>
      </trkpt>
      <trkpt lat="43.01706" lon="0.2443">
        <ele>1298.23</ele>
        <time>2018-05-23T11:14:05Z</time>
      </trkpt>
      <trkpt lat="43.01711" lon="0.24434">
        <ele>1296.37</ele>
        <time>2018-05-23T11:14:30Z</time>
      </trkpt>
      <trkpt lat="43.01717" lon="0.24444">
        <ele>1294.33</ele>
        <time>2018-05-23T11:14:48Z</time>
      </trkpt>
      <trkpt lat="43.01723" lon="0.24452">
        <ele>1292.04</ele>
        <time>2018-05-23T11:15:07Z</time>
      </trkpt>
      <trkpt lat="43.01729" lon="0.24462">
        <ele>1289.65</ele>
        <time>2018-05-23T11:15:25Z</time>
      </trkpt>
      <trkpt lat="43.01736" lon="0.24468">
        <ele>1287.46</ele>
        <time>2018-05-23T11:15:44Z</time>
      </trkpt>
      <trkpt lat="43.01738" lon="0.24465">
        <ele>1285.44</ele>
        <time>2018-05-23T11:15:50Z</time>
      </trkpt>
      <trkpt lat="43.01742" lon="0.24457">
        <ele>1283.61</ele>
        <time>2018-05-23T11:16:02Z</time>
      </trkpt>
      <trkpt lat="43.01741" lon="0.24438">
        <ele>1281.71</ele>
        <time>2018-05-23T11:16:21Z</time>
      </trkpt>
      <trkpt lat="43.01741" lon="0.24429">
        <ele>1279.81</ele>
        <time>2018-05-23T11:16:45Z</time>
      </trkpt>
      <trkpt lat="43.01743" lon="0.24417">
        <ele>1277.93</ele>
        <time>2018-05-23T11:17:10Z</time>
      </trkpt>
      <trkpt lat="43.01744" lon="0.2441">
        <ele>1276.09</ele>
        <time>2018-05-23T11:17:22Z</time>
      </trkpt>
      <trkpt lat="43.01743" lon="0.24393">
        <ele>1273.77</ele>
        <time>2018-05-23T11:17:45Z</time>
      </trkpt>
      <trkpt lat="43.01746" lon="0.24381">
        <ele>1271.77</ele>
        <time>2018-05-23T11:18:11Z</time>
      </trkpt>
      <trkpt lat="43.01746" lon="0.24368">
        <ele>1270.06</ele>
        <time>2018-05-23T11:18:36Z</time>
      </trkpt>
      <trkpt lat="43.01746" lon="0.24354">
        <ele>1268.65</ele>
        <time>2018-05-23T11:18:54Z</time>
      </trkpt>
      <trkpt lat="43.0174" lon="0.24342">
        <ele>1267.37</ele>
        <time>2018-05-23T11:19:15Z</time>
      </trkpt>
      <trkpt lat="43.01735" lon="0.24324">
        <ele>1266.09</ele>
        <time>2018-05-23T11:19:28Z</time>
      </trkpt>
      <trkpt lat="43.01728" lon="0.24309">
        <ele>1264.6</ele>
        <time>2018-05-23T11:19:46Z</time>
      </trkpt>
      <trkpt lat="43.01724" lon="0.2429">
        <ele>1262.55</ele>
        <time>2018-05-23T11:20:07Z</time>
      </trkpt>
      <trkpt lat="43.0172" lon="0.24268">
        <ele>1259.99</ele>
        <time>2018-05-23T11:20:27Z</time>
      </trkpt>
      <trkpt lat="43.01714" lon="0.24245">
        <ele>1257.26</ele>
        <time>2018-05-23T11:20:48Z</time>
      </trkpt>
      <trkpt lat="43.01709" lon="0.24219">
        <ele>1254.56</ele>
        <time>2018-05-23T11:21:10Z</time>
      </trkpt>
      <trkpt lat="43.01706" lon="0.24198">
        <ele>1251.86</ele>
        <time>2018-05-23T11:21:29Z</time>
      </trkpt>
      <trkpt lat="43.01703" lon="0.24177">
        <ele>1249.18</ele>
        <time>2018-05-23T11:21:46Z</time>
      </trkpt>
      <trkpt lat="43.01704" lon="0.24147">
        <ele>1246.6</ele>
        <time>2018-05-23T11:22:12Z</time>
      </trkpt>
      <trkpt lat="43.01706" lon="0.24123">
        <ele>1244.13</ele>
        <time>2018-05-23T11:22:33Z</time>
      </trkpt>
      <trkpt lat="43.01707" lon="0.24101">
        <ele>1241.75</ele>
        <time>2018-05-23T11:22:50Z</time>
      </trkpt>
      <trkpt lat="43.0171" lon="0.24081">
        <ele>1239.39</ele>
        <time>2018-05-23T11:23:09Z</time>
      </trkpt>
      <trkpt lat="43.01709" lon="0.24058">
        <ele>1236.93</ele>
        <time>2018-05-23T11:23:30Z</time>
      </trkpt>
      <trkpt lat="43.01713" lon="0.24041">
        <ele>1234.32</ele>
        <time>2018-05-23T11:23:51Z</time>
      </trkpt>
      <trkpt lat="43.01717" lon="0.24017">
        <ele>1231.48</ele>
        <time>2018-05-23T11:24:12Z</time>
      </trkpt>
      <trkpt lat="43.01717" lon="0.24001">
        <ele>1228.6</ele>
        <time>2018-05-23T11:24:33Z</time>
      </trkpt>
      <trkpt lat="43.01721" lon="0.2398">
        <ele>1225.77</ele>
        <time>2018-05-23T11:24:53Z</time>
      </trkpt>
      <trkpt lat="43.01722" lon="0.23958">
        <ele>1222.98</ele>
        <time>2018-05-23T11:25:11Z</time>
      </trkpt>
      <trkpt lat="43.01732" lon="0.23937">
        <ele>1220.26</ele>
        <time>2018-05-23T11:25:31Z</time>
      </trkpt>
      <trkpt lat="43.01742" lon="0.23924">
        <ele>1217.68</ele>
        <time>2018-05-23T11:25:52Z</time>
      </trkpt>
      <trkpt lat="43.01757" lon="0.23908">
        <ele>1215.07</ele>
        <time>2018-05-23T11:26:13Z</time>
      </trkpt>
      <trkpt lat="43.01762" lon="0.23888">
        <ele>1212.38</ele>
        <time>2018-05-23T11:26:32Z</time>
      </trkpt>
      <trkpt lat="43.0177" lon="0.23871">
        <ele>1209.65</ele>
        <time>2018-05-23T11:26:52Z</time>
      </trkpt>
      <trkpt lat="43.01779" lon="0.23856">
        <ele>1206.92</ele>
        <time>2018-05-23T11:27:15Z</time>
      </trkpt>
      <trkpt lat="43.01791" lon="0.2384">
        <ele>1204.14</ele>
        <time>2018-05-23T11:27:38Z</time>
      </trkpt>
      <trkpt lat="43.01801" lon="0.23828">
        <ele>1201.35</ele>
        <time>2018-05-23T11:27:56Z</time>
      </trkpt>
      <trkpt lat="43.01817" lon="0.23802">
        <ele>1198.66</ele>
        <time>2018-05-23T11:28:22Z</time>
      </trkpt>
      <trkpt lat="43.01833" lon="0.23803">
        <ele>1196.46</ele>
        <time>2018-05-23T11:28:39Z</time>
      </trkpt>
      <trkpt lat="43.01852" lon="0.23812">
        <ele>1194.24</ele>
        <time>2018-05-23T11:29:00Z</time>
      </trkpt>
      <trkpt lat="43.0187" lon="0.23806">
        <ele>1192.06</ele>
        <time>2018-05-23T11:29:29Z</time>
      </trkpt>
      <trkpt lat="43.01884" lon="0.2378">
        <ele>1189.78</ele>
        <time>2018-05-23T11:29:55Z</time>
      </trkpt>
      <trkpt lat="43.01902" lon="0.23771">
        <ele>1187.35</ele>
        <time>2018-05-23T11:30:16Z</time>
      </trkpt>
      <trkpt lat="43.01919" lon="0.23765">
        <ele>1184.72</ele>
        <time>2018-05-23T11:30:37Z</time>
      </trkpt>
      <trkpt lat="43.01943" lon="0.23756">
        <ele>1181.84</ele>
        <time>2018-05-23T11:31:04Z</time>
      </trkpt>
      <trkpt lat="43.01966" lon="0.23761">
        <ele>1179.24</ele>
        <time>2018-05-23T11:31:25Z</time>
      </trkpt>
      <trkpt lat="43.01955" lon="0.23768">
        <ele>1176.93</ele>
        <time>2018-05-23T11:31:46Z</time>
      </trkpt>
      <trkpt lat="43.01941" lon="0.23771">
        <ele>1174.56</ele>
        <time>2018-05-23T11:32:05Z</time>
      </trkpt>
      <trkpt lat="43.01921" lon="0.2379">
        <ele>1172.08</ele>
        <time>2018-05-23T11:32:32Z</time>
      </trkpt>
      <trkpt lat="43.01909" lon="0.23815">
        <ele>1169.68</ele>
        <time>2018-05-23T11:32:50Z</time>
      </trkpt>
      <trkpt lat="43.01899" lon="0.23825">
        <ele>1167.55</ele>
        <time>2018-05-23T11:33:17Z</time>
      </trkpt>
      <trkpt lat="43.01887" lon="0.23843">
        <ele>1165.64</ele>
        <time>2018-05-23T11:33:41Z</time>
      </trkpt>
      <trkpt lat="43.01881" lon="0.23859">
        <ele>1163.64</ele>
        <time>2018-05-23T11:34:01Z</time>
      </trkpt>
      <trkpt lat="43.0188" lon="0.23867">
        <ele>1161.72</ele>
        <time>2018-05-23T11:34:10Z</time>
      </trkpt>
      <trkpt lat="43.01865" lon="0.23902">
        <ele>1159.29</ele>
        <time>2018-05-23T11:34:36Z</time>
      </trkpt>
      <trkpt lat="43.01855" lon="0.23925">
        <ele>1156.85</ele>
        <time>2018-05-23T11:34:56Z</time>
      </trkpt>
      <trkpt lat="43.01846" lon="0.23953">
        <ele>1154.3</ele>
        <time>2018-05-23T11:35:21Z</time>
      </trkpt>
      <trkpt lat="43.01841" lon="0.2398">
        <ele>1151.97</ele>
        <time>2018-05-23T11:35:41Z</time>
      </trkpt>
      <trkpt lat="43.01841" lon="0.24004">
        <ele>1149.74</ele>
        <time>2018-05-23T11:35:57Z</time>
      </trkpt>
      <trkpt lat="43.01842" lon="0.24023">
        <ele>1147.78</ele>
        <time>2018-05-23T11:36:15Z</time>
      </trkpt>
      <trkpt lat="43.01844" lon="0.24047">
        <ele>1145.73</ele>
        <time>2018-05-23T11:36:35Z</time>
      </trkpt>
      <trkpt lat="43.0185" lon="0.24075">
        <ele>1143.51</ele>
        <time>2018-05-23T11:36:57Z</time>
      </trkpt>
      <trkpt lat="43.01858" lon="0.24101">
        <ele>1141.21</ele>
        <time>2018-05-23T11:37:16Z</time>
      </trkpt>
      <trkpt lat="43.0187" lon="0.24122">
        <ele>1139.01</ele>
        <time>2018-05-23T11:37:37Z</time>
      </trkpt>
      <trkpt lat="43.01877" lon="0.24144">
        <ele>1136.91</ele>
        <time>2018-05-23T11:37:59Z</time>
      </trkpt>
      <trkpt lat="43.01888" lon="0.24163">
        <ele>1134.94</ele>
        <time>2018-05-23T11:38:18Z</time>
      </trkpt>
      <trkpt lat="43.01901" lon="0.24183">
        <ele>1132.82</ele>
        <time>2018-05-23T11:38:37Z</time>
      </trkpt>
      <trkpt lat="43.01914" lon="0.24205">
        <ele>1130.56</ele>
        <time>2018-05-23T11:38:56Z</time>
      </trkpt>
      <trkpt lat="43.01925" lon="0.24225">
        <ele>1128.2</ele>
        <time>2018-05-23T11:39:17Z</time>
      </trkpt>
      <trkpt lat="43.01934" lon="0.24246">
        <ele>1125.7</ele>
        <time>2018-05-23T11:39:38Z</time>
      </trkpt>
      <trkpt lat="43.01944" lon="0.24267">
        <ele>1123.15</ele>
        <time>2018-05-23T11:39:58Z</time>
      </trkpt>
      <trkpt lat="43.01953" lon="0.24292">
        <ele>1120.66</ele>
        <time>2018-05-23T11:40:20Z</time>
      </trkpt>
      <trkpt lat="43.0196" lon="0.24311">
        <ele>1118.44</ele>
        <time>2018-05-23T11:40:37Z</time>
      </trkpt>
      <trkpt lat="43.01966" lon="0.24332">
        <ele>1116.49</ele>
        <time>2018-05-23T11:40:57Z</time>
      </trkpt>
      <trkpt lat="43.0197" lon="0.24353">
        <ele>1114.7</ele>
        <time>2018-05-23T11:41:16Z</time>
      </trkpt>
      <trkpt lat="43.01978" lon="0.24372">
        <ele>1112.83</ele>
        <time>2018-05-23T11:41:35Z</time>
      </trkpt>
      <trkpt lat="43.01987" lon="0.24395">
        <ele>1111</ele>
        <time>2018-05-23T11:41:57Z</time>
      </trkpt>
      <trkpt lat="43.01996" lon="0.24428">
        <ele>1109.09</ele>
        <time>2018-05-23T11:42:20Z</time>
      </trkpt>
      <trkpt lat="43.01999" lon="0.24452">
        <ele>1107.07</ele>
        <time>2018-05-23T11:42:38Z</time>
      </trkpt>
      <trkpt lat="43.0201" lon="0.24479">
        <ele>1105.06</ele>
        <time>2018-05-23T11:42:54Z</time>
      </trkpt>
      <trkpt lat="43.02007" lon="0.24471">
        <ele>1103.34</ele>
        <time>2018-05-23T11:43:11Z</time>
      </trkpt>
      <trkpt lat="43.02003" lon="0.24446">
        <ele>1101.53</ele>
        <time>2018-05-23T11:43:28Z</time>
      </trkpt>
      <trkpt lat="43.02005" lon="0.24432">
        <ele>1099.59</ele>
        <time>2018-05-23T11:43:39Z</time>
      </trkpt>
      <trkpt lat="43.02005" lon="0.24419">
        <ele>1097.46</ele>
        <time>2018-05-23T11:43:49Z</time>
      </trkpt>
      <trkpt lat="43.02006" lon="0.24397">
        <ele>1095.01</ele>
        <time>2018-05-23T11:44:09Z</time>
      </trkpt>
      <trkpt lat="43.02007" lon="0.24371">
        <ele>1092.23</ele>
        <time>2018-05-23T11:44:30Z</time>
      </trkpt>
      <trkpt lat="43.02009" lon="0.24349">
        <ele>1089.26</ele>
        <time>2018-05-23T11:44:48Z</time>
      </trkpt>
      <trkpt lat="43.0201" lon="0.24331">
        <ele>1086.38</ele>
        <time>2018-05-23T11:45:07Z</time>
      </trkpt>
      <trkpt lat="43.0201" lon="0.24304">
        <ele>1083.5</ele>
        <time>2018-05-23T11:45:27Z</time>
      </trkpt>
      <trkpt lat="43.02009" lon="0.24277">
        <ele>1080.76</ele>
        <time>2018-05-23T11:45:46Z</time>
      </trkpt>
      <trkpt lat="43.02009" lon="0.24252">
        <ele>1078.05</ele>
        <time>2018-05-23T11:46:05Z</time>
      </trkpt>
      <trkpt lat="43.02004" lon="0.24228">
        <ele>1075.33</ele>
        <time>2018-05-23T11:46:25Z</time>
      </trkpt>
      <trkpt lat="43.02002" lon="0.24205">
        <ele>1072.69</ele>
        <time>2018-05-23T11:46:45Z</time>
      </trkpt>
      <trkpt lat="43.01996" lon="0.24181">
        <ele>1069.93</ele>
        <time>2018-05-23T11:47:07Z</time>
      </trkpt>
      <trkpt lat="43.01996" lon="0.24158">
        <ele>1067.1</ele>
        <time>2018-05-23T11:47:26Z</time>
      </trkpt>
      <trkpt lat="43.01997" lon="0.24134">
        <ele>1064.25</ele>
        <time>2018-05-23T11:47:46Z</time>
      </trkpt>
      <trkpt lat="43.02003" lon="0.24095">
        <ele>1061.28</ele>
        <time>2018-05-23T11:48:10Z</time>
      </trkpt>
      <trkpt lat="43.02022" lon="0.24075">
        <ele>1058.42</ele>
        <time>2018-05-23T11:48:31Z</time>
      </trkpt>
      <trkpt lat="43.02037" lon="0.24067">
        <ele>1055.86</ele>
        <time>2018-05-23T11:48:47Z</time>
      </trkpt>
      <trkpt lat="43.02047" lon="0.24053">
        <ele>1053.69</ele>
        <time>2018-05-23T11:49:03Z</time>
      </trkpt>
      <trkpt lat="43.02053" lon="0.24043">
        <ele>1051.71</ele>
        <time>2018-05-23T11:49:15Z</time>
      </trkpt>
      <trkpt lat="43.02059" lon="0.24032">
        <ele>1049.76</ele>
        <time>2018-05-23T11:49:25Z</time>
      </trkpt>
      <trkpt lat="43.02075" lon="0.2402">
        <ele>1047.96</ele>
        <time>2018-05-23T11:49:41Z</time>
      </trkpt>
      <trkpt lat="43.02094" lon="0.24011">
        <ele>1046.12</ele>
        <time>2018-05-23T11:50:01Z</time>
      </trkpt>
      <trkpt lat="43.02111" lon="0.24">
        <ele>1044.07</ele>
        <time>2018-05-23T11:50:17Z</time>
      </trkpt>
      <trkpt lat="43.02121" lon="0.23977">
        <ele>1041.7</ele>
        <time>2018-05-23T11:50:37Z</time>
      </trkpt>
      <trkpt lat="43.02132" lon="0.23957">
        <ele>1039.25</ele>
        <time>2018-05-23T11:50:56Z</time>
      </trkpt>
      <trkpt lat="43.02153" lon="0.23946">
        <ele>1036.46</ele>
        <time>2018-05-23T11:51:21Z</time>
      </trkpt>
      <trkpt lat="43.02165" lon="0.23928">
        <ele>1033.72</ele>
        <time>2018-05-23T11:51:40Z</time>
      </trkpt>
      <trkpt lat="43.0218" lon="0.23908">
        <ele>1030.99</ele>
        <time>2018-05-23T11:52:00Z</time>
      </trkpt>
      <trkpt lat="43.02188" lon="0.23894">
        <ele>1028.53</ele>
        <time>2018-05-23T11:52:13Z</time>
      </trkpt>
      <trkpt lat="43.02197" lon="0.23871">
        <ele>1026.19</ele>
        <time>2018-05-23T11:52:34Z</time>
      </trkpt>
      <trkpt lat="43.02206" lon="0.23846">
        <ele>1023.99</ele>
        <time>2018-05-23T11:52:57Z</time>
      </trkpt>
      <trkpt lat="43.02228" lon="0.23828">
        <ele>1021.82</ele>
        <time>2018-05-23T11:53:17Z</time>
      </trkpt>
      <trkpt lat="43.02241" lon="0.2382">
        <ele>1019.83</ele>
        <time>2018-05-23T11:53:32Z</time>
      </trkpt>
      <trkpt lat="43.02254" lon="0.23805">
        <ele>1018.12</ele>
        <time>2018-05-23T11:53:48Z</time>
      </trkpt>
      <trkpt lat="43.02267" lon="0.23776">
        <ele>1016.61</ele>
        <time>2018-05-23T11:54:11Z</time>
      </trkpt>
      <trkpt lat="43.02266" lon="0.23771">
        <ele>1015.45</ele>
        <time>2018-05-23T11:54:24Z</time>
      </trkpt>
      <trkpt lat="43.02269" lon="0.23773">
        <ele>1014.43</ele>
        <time>2018-05-23T11:54:40Z</time>
      </trkpt>
      <trkpt lat="43.02273" lon="0.23781">
        <ele>1013.23</ele>
        <time>2018-05-23T11:55:00Z</time>
      </trkpt>
      <trkpt lat="43.02271" lon="0.23791">
        <ele>1011.77</ele>
        <time>2018-05-23T11:55:08Z</time>
      </trkpt>
      <trkpt lat="43.02264" lon="0.23817">
        <ele>1009.68</ele>
        <time>2018-05-23T11:55:30Z</time>
      </trkpt>
      <trkpt lat="43.0226" lon="0.23836">
        <ele>1007.52</ele>
        <time>2018-05-23T11:55:47Z</time>
      </trkpt>
      <trkpt lat="43.0225" lon="0.23856">
        <ele>1005.43</ele>
        <time>2018-05-23T11:56:08Z</time>
      </trkpt>
      <trkpt lat="43.02247" lon="0.23872">
        <ele>1003.83</ele>
        <time>2018-05-23T11:56:20Z</time>
      </trkpt>
      <trkpt lat="43.02237" lon="0.23892">
        <ele>1002.37</ele>
        <time>2018-05-23T11:56:31Z</time>
      </trkpt>
      <trkpt lat="43.0223" lon="0.23911">
        <ele>1001.03</ele>
        <time>2018-05-23T11:56:45Z</time>
      </trkpt>
      <trkpt lat="43.02219" lon="0.23935">
        <ele>999.5</ele>
        <time>2018-05-23T11:57:06Z</time>
      </trkpt>
      <trkpt lat="43.02202" lon="0.23966">
        <ele>997.55</ele>
        <time>2018-05-23T11:57:30Z</time>
      </trkpt>
      <trkpt lat="43.02191" lon="0.23993">
        <ele>995.4</ele>
        <time>2018-05-23T11:57:50Z</time>
      </trkpt>
      <trkpt lat="43.02177" lon="0.24014">
        <ele>993.06</ele>
        <time>2018-05-23T11:58:10Z</time>
      </trkpt>
      <trkpt lat="43.02169" lon="0.24038">
        <ele>990.58</ele>
        <time>2018-05-23T11:58:31Z</time>
      </trkpt>
      <trkpt lat="43.02163" lon="0.24063">
        <ele>988.12</ele>
        <time>2018-05-23T11:58:50Z</time>
      </trkpt>
      <trkpt lat="43.02159" lon="0.2409">
        <ele>985.53</ele>
        <time>2018-05-23T11:59:11Z</time>
      </trkpt>
      <trkpt lat="43.02155" lon="0.24121">
        <ele>983.17</ele>
        <time>2018-05-23T11:59:32Z</time>
      </trkpt>
      <trkpt lat="43.02152" lon="0.24148">
        <ele>980.96</ele>
        <time>2018-05-23T11:59:53Z</time>
      </trkpt>
      <trkpt lat="43.02155" lon="0.24157">
        <ele>978.99</ele>
        <time>2018-05-23T12:00:00Z</time>
      </trkpt>
      <trkpt lat="43.02169" lon="0.24184">
        <ele>977.01</ele>
        <time>2018-05-23T12:00:22Z</time>
      </trkpt>
      <trkpt lat="43.02184" lon="0.24201">
        <ele>975.18</ele>
        <time>2018-05-23T12:00:41Z</time>
      </trkpt>
      <trkpt lat="43.02193" lon="0.24213">
        <ele>973.15</ele>
        <time>2018-05-23T12:00:54Z</time>
      </trkpt>
      <trkpt lat="43.02203" lon="0.24232">
        <ele>971.01</ele>
        <time>2018-05-23T12:01:12Z</time>
      </trkpt>
      <trkpt lat="43.02214" lon="0.24257">
        <ele>968.67</ele>
        <time>2018-05-23T12:01:31Z</time>
      </trkpt>
      <trkpt lat="43.02224" lon="0.24274">
        <ele>966.06</ele>
        <time>2018-05-23T12:01:48Z</time>
      </trkpt>
      <trkpt lat="43.02227" lon="0.24301">
        <ele>963.25</ele>
        <time>2018-05-23T12:02:06Z</time>
      </trkpt>
      <trkpt lat="43.02223" lon="0.24324">
        <ele>960.41</ele>
        <time>2018-05-23T12:02:26Z</time>
      </trkpt>
      <trkpt lat="43.02225" lon="0.24353">
        <ele>957.55</ele>
        <time>2018-05-23T12:02:49Z</time>
      </trkpt>
      <trkpt lat="43.02229" lon="0.24381">
        <ele>955.1</ele>
        <time>2018-05-23T12:03:10Z</time>
      </trkpt>
      <trkpt lat="43.02236" lon="0.2441">
        <ele>952.69</ele>
        <time>2018-05-23T12:03:30Z</time>
      </trkpt>
      <trkpt lat="43.02242" lon="0.24418">
        <ele>950.51</ele>
        <time>2018-05-23T12:03:37Z</time>
      </trkpt>
      <trkpt lat="43.02262" lon="0.24429">
        <ele>948.35</ele>
        <time>2018-05-23T12:04:00Z</time>
      </trkpt>
      <trkpt lat="43.02289" lon="0.24436">
        <ele>946.05</ele>
        <time>2018-05-23T12:04:23Z</time>
      </trkpt>
      <trkpt lat="43.02304" lon="0.24432">
        <ele>943.7</ele>
        <time>2018-05-23T12:04:34Z</time>
      </trkpt>
      <trkpt lat="43.02312" lon="0.24411">
        <ele>941.6</ele>
        <time>2018-05-23T12:04:52Z</time>
      </trkpt>
      <trkpt lat="43.02304" lon="0.24391">
        <ele>939.6</ele>
        <time>2018-05-23T12:05:10Z</time>
      </trkpt>
      <trkpt lat="43.02297" lon="0.24359">
        <ele>937.5</ele>
        <time>2018-05-23T12:05:30Z</time>
      </trkpt>
      <trkpt lat="43.02302" lon="0.24337">
        <ele>935.65</ele>
        <time>2018-05-23T12:05:45Z</time>
      </trkpt>
      <trkpt lat="43.02308" lon="0.24337">
        <ele>933.86</ele>
        <time>2018-05-23T12:05:53Z</time>
      </trkpt>
      <trkpt lat="43.02322" lon="0.24344">
        <ele>931.94</ele>
        <time>2018-05-23T12:06:10Z</time>
      </trkpt>
      <trkpt lat="43.02332" lon="0.24358">
        <ele>929.78</ele>
        <time>2018-05-23T12:06:29Z</time>
      </trkpt>
      <trkpt lat="43.02343" lon="0.24371">
        <ele>927.49</ele>
        <time>2018-05-23T12:06:44Z</time>
      </trkpt>
      <trkpt lat="43.02358" lon="0.24389">
        <ele>925.06</ele>
        <time>2018-05-23T12:07:05Z</time>
      </trkpt>
      <trkpt lat="43.02369" lon="0.24403">
        <ele>922.87</ele>
        <time>2018-05-23T12:07:22Z</time>
      </trkpt>
      <trkpt lat="43.02383" lon="0.24413">
        <ele>920.39</ele>
        <time>2018-05-23T12:07:44Z</time>
      </trkpt>
      <trkpt lat="43.02391" lon="0.24428">
        <ele>918.09</ele>
        <time>2018-05-23T12:08:03Z</time>
      </trkpt>
      <trkpt lat="43.02404" lon="0.24463">
        <ele>915.79</ele>
        <time>2018-05-23T12:08:29Z</time>
      </trkpt>
      <trkpt lat="43.02415" lon="0.24496">
        <ele>913.96</ele>
        <time>2018-05-23T12:08:53Z</time>
      </trkpt>
      <trkpt lat="43.02423" lon="0.24511">
        <ele>912.87</ele>
        <time>2018-05-23T12:09:07Z</time>
      </trkpt>
      <trkpt lat="43.02435" lon="0.24516">
        <ele>912</ele>
        <time>2018-05-23T12:09:24Z</time>
      </trkpt>
    </trkseg>
  </trk>
</gpx>